Wetterdaten: Mittwoch, 10.06.2020
Datum Zeit Temp. Aussen Temp. o. S. Temp +5cm Feuchte Auss Luftdruck Regen Sonnenschein Regendauer Solar Windben Empfang
10.06.2020 00:00 14,4 C 13,3 C 13,3 C 80 % 1018,2 hPa 0,0 l/m 0 min 0 min 0 W/m 0,0 km/h (0 Bft) 95,74 %
10.06.2020 00:02 14,4 C 13,3 C 13,3 C 81 % 1018,1 hPa 0,0 l/m 0 min 0 min 0 W/m 0,0 km/h (0 Bft) 90,91 %
10.06.2020 00:04 14,4 C 13,3 C 13,3 C 81 % 1018,2 hPa 0,0 l/m 0 min 0 min 0 W/m 3,2 km/h (1 Bft) 95,74 %
10.06.2020 00:08 14,4 C 13,3 C 13,3 C 81 % 1018,1 hPa 0,0 l/m 0 min 0 min 0 W/m 9,7 km/h (2 Bft) 95,74 %
10.06.2020 00:10 14,3 C 13,3 C 13,3 C 81 % 1018,1 hPa 0,0 l/m 0 min 0 min 0 W/m 0,0 km/h (0 Bft) 95,74 %
10.06.2020 00:12 14,3 C 13,3 C 13,3 C 81 % 1018,2 hPa 0,0 l/m 0 min 0 min 0 W/m 0,0 km/h (0 Bft) 93,62 %
10.06.2020 00:14 14,3 C 13,3 C 13,3 C 81 % 1018,0 hPa 0,0 l/m 0 min 0 min 0 W/m 0,0 km/h (0 Bft) 95,65 %
10.06.2020 00:16 14,3 C 13,3 C 13,3 C 81 % 1018,1 hPa 0,0 l/m 0 min 0 min 0 W/m 3,2 km/h (1 Bft) 95,74 %
10.06.2020 00:18 14,3 C 13,3 C 13,3 C 81 % 1018,1 hPa 0,0 l/m 0 min 0 min 0 W/m 0,0 km/h (0 Bft) 95,74 %
10.06.2020 00:20 14,3 C 13,3 C 13,3 C 81 % 1018,1 hPa 0,0 l/m 0 min 0 min 0 W/m 9,7 km/h (2 Bft) 95,74 %
10.06.2020 00:22 14,3 C 13,3 C 13,3 C 81 % 1018,1 hPa 0,0 l/m 0 min 0 min 0 W/m 0,0 km/h (0 Bft) 95,74 %
10.06.2020 00:24 14,3 C 13,3 C 13,3 C 81 % 1018,1 hPa 0,0 l/m 0 min 0 min 0 W/m 3,2 km/h (1 Bft) 95,74 %
10.06.2020 00:26 14,3 C 13,3 C 13,3 C 81 % 1018,1 hPa 0,0 l/m 0 min 0 min 0 W/m 3,2 km/h (1 Bft) 97,83 %
10.06.2020 00:28 14,3 C 13,3 C 13,3 C 81 % 1018,1 hPa 0,0 l/m 0 min 0 min 0 W/m 0,0 km/h (0 Bft) 95,74 %
10.06.2020 00:30 14,3 C 13,3 C 13,3 C 81 % 1018,1 hPa 0,0 l/m 0 min 0 min 0 W/m 6,4 km/h (2 Bft) 95,74 %
10.06.2020 00:32 14,3 C 13,3 C 12,8 C 81 % 1018,1 hPa 0,0 l/m 0 min 0 min 0 W/m 0,0 km/h (0 Bft) 95,74 %
10.06.2020 00:34 14,3 C 13,3 C 12,8 C 81 % 1018,1 hPa 0,0 l/m 0 min 0 min 0 W/m 0,0 km/h (0 Bft) 97,87 %
10.06.2020 00:36 14,3 C 13,3 C 12,8 C 81 % 1018,1 hPa 0,0 l/m 0 min 0 min 0 W/m 0,0 km/h (0 Bft) 95,74 %
10.06.2020 00:38 14,3 C 13,3 C 12,8 C 81 % 1018,2 hPa 0,0 l/m 0 min 0 min 0 W/m 0,0 km/h (0 Bft) 97,83 %
10.06.2020 00:40 14,3 C 13,3 C 12,8 C 81 % 1018,1 hPa 0,0 l/m 0 min 0 min 0 W/m 3,2 km/h (1 Bft) 97,87 %
10.06.2020 00:42 14,3 C 13,3 C 12,8 C 81 % 1018,0 hPa 0,0 l/m 0 min 0 min 0 W/m 0,0 km/h (0 Bft) 95,74 %
10.06.2020 00:44 14,3 C 13,3 C 12,8 C 81 % 1018,0 hPa 0,0 l/m 0 min 0 min 0 W/m 0,0 km/h (0 Bft) 97,87 %
10.06.2020 00:46 14,3 C 13,3 C 12,8 C 81 % 1018,0 hPa 0,0 l/m 0 min 0 min 0 W/m 6,4 km/h (2 Bft) 95,74 %
10.06.2020 00:48 14,3 C 13,3 C 12,8 C 81 % 1018,0 hPa 0,0 l/m 0 min 2 min 0 W/m 3,2 km/h (1 Bft) 95,65 %
10.06.2020 00:50 14,3 C 13,3 C 13,3 C 81 % 1018,0 hPa 0,0 l/m 0 min 0 min 0 W/m 3,2 km/h (1 Bft) 95,74 %
10.06.2020 00:52 14,3 C 13,3 C 13,3 C 81 % 1018,0 hPa 0,0 l/m 0 min 0 min 0 W/m 6,4 km/h (2 Bft) 97,87 %
10.06.2020 00:54 14,3 C 13,3 C 13,3 C 81 % 1018,0 hPa 0,0 l/m 0 min 0 min 0 W/m 0,0 km/h (0 Bft) 97,87 %
10.06.2020 00:56 14,3 C 13,3 C 13,3 C 81 % 1018,0 hPa 0,0 l/m 0 min 0 min 0 W/m 0,0 km/h (0 Bft) 95,74 %
10.06.2020 00:58 14,3 C 13,3 C 13,3 C 81 % 1018,0 hPa 0,0 l/m 0 min 0 min 0 W/m 6,4 km/h (2 Bft) 97,87 %
10.06.2020 01:00 14,3 C 13,3 C 12,8 C 81 % 1018,0 hPa 0,0 l/m 0 min 0 min 0 W/m 9,7 km/h (2 Bft) 97,83 %
10.06.2020 01:02 14,2 C 13,3 C 13,3 C 81 % 1018,0 hPa 0,0 l/m 0 min 0 min 0 W/m 6,4 km/h (2 Bft) 94,44 %
10.06.2020 01:04 14,2 C 13,3 C 13,3 C 81 % 1018,0 hPa 0,0 l/m 0 min 0 min 0 W/m 9,7 km/h (2 Bft) 93,48 %
10.06.2020 01:06 14,2 C 13,3 C 13,3 C 81 % 1018,0 hPa 0,0 l/m 0 min 0 min 0 W/m 0,0 km/h (0 Bft) 95,74 %
10.06.2020 01:08 14,2 C 13,3 C 13,3 C 81 % 1018,0 hPa 0,0 l/m 0 min 0 min 0 W/m 0,0 km/h (0 Bft) 93,62 %
10.06.2020 01:10 14,2 C 13,3 C 13,3 C 82 % 1018,0 hPa 0,0 l/m 0 min 0 min 0 W/m 3,2 km/h (1 Bft) 97,87 %
10.06.2020 01:12 14,2 C 13,3 C 13,3 C 82 % 1018,0 hPa 0,0 l/m 0 min 0 min 0 W/m 3,2 km/h (1 Bft) 95,74 %
10.06.2020 01:14 14,2 C 13,3 C 13,3 C 82 % 1018,0 hPa 0,0 l/m 0 min 0 min 0 W/m 0,0 km/h (0 Bft) 97,87 %
10.06.2020 01:16 14,2 C 13,3 C 12,8 C 82 % 1018,0 hPa 0,0 l/m 0 min 0 min 0 W/m 0,0 km/h (0 Bft) 97,83 %
10.06.2020 01:18 14,2 C 13,3 C 12,8 C 81 % 1018,0 hPa 0,0 l/m 0 min 0 min 0 W/m 0,0 km/h (0 Bft) 97,87 %
10.06.2020 01:20 14,2 C 13,3 C 12,8 C 81 % 1017,9 hPa 0,0 l/m 0 min 0 min 0 W/m 0,0 km/h (0 Bft) 97,87 %
10.06.2020 01:22 14,2 C 13,3 C 12,8 C 81 % 1017,9 hPa 0,0 l/m 0 min 0 min 0 W/m 0,0 km/h (0 Bft) 97,87 %
10.06.2020 01:24 14,2 C 13,3 C 12,8 C 81 % 1017,9 hPa 0,0 l/m 0 min 0 min 0 W/m 3,2 km/h (1 Bft) 97,87 %
10.06.2020 01:26 14,2 C 13,3 C 12,8 C 81 % 1017,9 hPa 0,0 l/m 0 min 0 min 0 W/m 0,0 km/h (0 Bft) 95,74 %
10.06.2020 01:28 14,2 C 13,3 C 12,8 C 81 % 1017,9 hPa 0,0 l/m 0 min 0 min 0 W/m 0,0 km/h (0 Bft) 97,83 %
10.06.2020 01:30 14,2 C 12,8 C 12,8 C 81 % 1017,9 hPa 0,0 l/m 0 min 0 min 0 W/m 3,2 km/h (1 Bft) 97,87 %
10.06.2020 01:32 14,1 C 12,8 C 12,8 C 81 % 1017,8 hPa 0,0 l/m 0 min 0 min 0 W/m 0,0 km/h (0 Bft) 100,00 %
10.06.2020 01:34 14,1 C 12,8 C 12,8 C 81 % 1017,9 hPa 0,0 l/m 0 min 0 min 0 W/m 3,2 km/h (1 Bft) 97,87 %
10.06.2020 01:36 14,1 C 13,3 C 12,8 C 81 % 1017,8 hPa 0,0 l/m 0 min 0 min 0 W/m 0,0 km/h (0 Bft) 100,00 %
10.06.2020 01:38 14,1 C 12,8 C 12,8 C 81 % 1017,8 hPa 0,0 l/m 0 min 0 min 0 W/m 3,2 km/h (1 Bft) 100,00 %
10.06.2020 01:40 14,1 C 12,8 C 12,8 C 81 % 1017,8 hPa 0,0 l/m 0 min 0 min 0 W/m 3,2 km/h (1 Bft) 100,00 %
10.06.2020 01:42 14,1 C 12,8 C 12,8 C 81 % 1017,8 hPa 0,0 l/m 0 min 0 min 0 W/m 0,0 km/h (0 Bft) 97,87 %
10.06.2020 01:44 14,1 C 12,8 C 12,8 C 81 % 1017,8 hPa 0,0 l/m 0 min 0 min 0 W/m 0,0 km/h (0 Bft) 97,83 %
10.06.2020 01:46 14,1 C 12,8 C 12,8 C 81 % 1017,8 hPa 0,0 l/m 0 min 0 min 0 W/m 6,4 km/h (2 Bft) 100,00 %
10.06.2020 01:48 14,1 C 12,8 C 12,8 C 82 % 1017,7 hPa 0,0 l/m 0 min 0 min 0 W/m 3,2 km/h (1 Bft) 100,00 %
10.06.2020 01:50 14,1 C 12,8 C 12,8 C 82 % 1017,8 hPa 0,0 l/m 0 min 0 min 0 W/m 0,0 km/h (0 Bft) 97,87 %
10.06.2020 01:52 14,1 C 12,8 C 12,8 C 82 % 1017,8 hPa 0,0 l/m 0 min 0 min 0 W/m 0,0 km/h (0 Bft) 100,00 %
10.06.2020 01:54 14,1 C 12,8 C 12,8 C 82 % 1017,8 hPa 0,0 l/m 0 min 0 min 0 W/m 0,0 km/h (0 Bft) 97,87 %
10.06.2020 01:56 14,1 C 12,8 C 12,8 C 82 % 1017,7 hPa 0,0 l/m 0 min 0 min 0 W/m 3,2 km/h (1 Bft) 100,00 %
10.06.2020 01:58 14,0 C 12,8 C 12,8 C 82 % 1017,7 hPa 0,0 l/m 0 min 0 min 0 W/m 3,2 km/h (1 Bft) 100,00 %
10.06.2020 02:00 14,0 C 12,8 C 12,8 C 82 % 1017,6 hPa 0,0 l/m 0 min 0 min 0 W/m 0,0 km/h (0 Bft) 97,87 %
10.06.2020 02:02 14,0 C 12,8 C 12,8 C 82 % 1017,7 hPa 0,0 l/m 0 min 0 min 0 W/m 0,0 km/h (0 Bft) 95,74 %
10.06.2020 02:04 14,0 C 12,8 C 12,8 C 82 % 1017,6 hPa 0,0 l/m 0 min 0 min 0 W/m 0,0 km/h (0 Bft) 100,00 %
10.06.2020 02:06 14,0 C 12,8 C 12,8 C 82 % 1017,6 hPa 0,0 l/m 0 min 0 min 0 W/m 0,0 km/h (0 Bft) 100,00 %
10.06.2020 02:08 13,9 C 12,8 C 12,8 C 82 % 1017,5 hPa 0,0 l/m 0 min 0 min 0 W/m 0,0 km/h (0 Bft) 97,83 %
10.06.2020 02:10 13,9 C 12,8 C 12,8 C 82 % 1017,6 hPa 0,0 l/m 0 min 0 min 0 W/m 3,2 km/h (1 Bft) 98,00 %
10.06.2020 02:12 13,9 C 12,8 C 12,8 C 82 % 1017,5 hPa 0,0 l/m 0 min 0 min 0 W/m 0,0 km/h (0 Bft) 95,74 %
10.06.2020 02:14 13,9 C 12,8 C 12,8 C 82 % 1017,5 hPa 0,0 l/m 0 min 0 min 0 W/m 3,2 km/h (1 Bft) 100,00 %
10.06.2020 02:16 13,9 C 12,8 C 12,8 C 82 % 1017,5 hPa 0,0 l/m 0 min 0 min 0 W/m 0,0 km/h (0 Bft) 100,00 %
10.06.2020 02:18 13,9 C 12,8 C 12,8 C 82 % 1017,4 hPa 0,0 l/m 0 min 0 min 0 W/m 0,0 km/h (0 Bft) 97,83 %
10.06.2020 02:20 13,9 C 12,8 C 12,8 C 82 % 1017,5 hPa 0,0 l/m 0 min 0 min 0 W/m 0,0 km/h (0 Bft) 97,87 %
10.06.2020 02:22 13,9 C 12,8 C 12,8 C 82 % 1017,5 hPa 0,0 l/m 0 min 0 min 0 W/m 0,0 km/h (0 Bft) 97,87 %
10.06.2020 02:24 13,9 C 12,8 C 12,8 C 82 % 1017,5 hPa 0,0 l/m 0 min 0 min 0 W/m 3,2 km/h (1 Bft) 100,00 %
10.06.2020 02:26 13,9 C 12,8 C 12,8 C 82 % 1017,4 hPa 0,0 l/m 0 min 0 min 0 W/m 0,0 km/h (0 Bft) 100,00 %
10.06.2020 02:28 13,9 C 12,8 C 12,8 C 82 % 1017,5 hPa 0,0 l/m 0 min 0 min 0 W/m 0,0 km/h (0 Bft) 95,74 %
10.06.2020 02:30 13,9 C 12,8 C 12,8 C 82 % 1017,4 hPa 0,0 l/m 0 min 0 min 0 W/m 0,0 km/h (0 Bft) 97,83 %
10.06.2020 02:32 13,9 C 12,8 C 12,8 C 82 % 1017,4 hPa 0,0 l/m 0 min 0 min 0 W/m 0,0 km/h (0 Bft) 97,87 %
10.06.2020 02:34 13,8 C 12,8 C 12,8 C 82 % 1017,4 hPa 0,0 l/m 0 min 0 min 0 W/m 0,0 km/h (0 Bft) 97,87 %
10.06.2020 02:36 13,8 C 12,8 C 12,8 C 82 % 1017,4 hPa 0,0 l/m 0 min 0 min 0 W/m 0,0 km/h (0 Bft) 97,87 %
10.06.2020 02:38 13,8 C 12,8 C 12,8 C 82 % 1017,4 hPa 0,0 l/m 0 min 0 min 0 W/m 0,0 km/h (0 Bft) 97,87 %
10.06.2020 02:40 13,8 C 12,8 C 12,8 C 82 % 1017,4 hPa 0,0 l/m 0 min 0 min 0 W/m 0,0 km/h (0 Bft) 97,87 %
10.06.2020 02:42 13,8 C 12,8 C 12,8 C 82 % 1017,3 hPa 0,0 l/m 0 min 0 min 0 W/m 0,0 km/h (0 Bft) 97,83 %
10.06.2020 02:44 13,8 C 12,8 C 12,8 C 82 % 1017,3 hPa 0,0 l/m 0 min 0 min 0 W/m 0,0 km/h (0 Bft) 97,87 %
10.06.2020 02:46 13,8 C 12,8 C 12,8 C 82 % 1017,3 hPa 0,0 l/m 0 min 0 min 0 W/m 0,0 km/h (0 Bft) 97,87 %
10.06.2020 02:48 13,8 C 12,8 C 12,8 C 82 % 1017,3 hPa 0,0 l/m 0 min 0 min 0 W/m 0,0 km/h (0 Bft) 97,87 %
10.06.2020 02:50 13,8 C 12,8 C 12,8 C 82 % 1017,3 hPa 0,0 l/m 0 min 0 min 0 W/m 0,0 km/h (0 Bft) 97,87 %
10.06.2020 02:52 13,8 C 12,8 C 12,8 C 83 % 1017,3 hPa 0,0 l/m 0 min 0 min 0 W/m 0,0 km/h (0 Bft) 97,87 %
10.06.2020 02:54 13,8 C 12,8 C 12,8 C 83 % 1017,3 hPa 0,0 l/m 0 min 0 min 0 W/m 0,0 km/h (0 Bft) 97,83 %
10.06.2020 02:56 13,8 C 12,8 C 12,8 C 83 % 1017,3 hPa 0,0 l/m 0 min 0 min 0 W/m 3,2 km/h (1 Bft) 97,87 %
10.06.2020 02:58 13,8 C 12,8 C 12,8 C 83 % 1017,3 hPa 0,0 l/m 0 min 0 min 0 W/m 0,0 km/h (0 Bft) 97,87 %
10.06.2020 03:00 13,7 C 12,8 C 12,8 C 83 % 1017,3 hPa 0,0 l/m 0 min 0 min 0 W/m 3,2 km/h (1 Bft) 95,74 %
10.06.2020 03:02 13,7 C 12,8 C 12,8 C 83 % 1017,3 hPa 0,0 l/m 0 min 0 min 0 W/m 0,0 km/h (0 Bft) 97,87 %
10.06.2020 03:04 13,7 C 12,8 C 12,8 C 83 % 1017,3 hPa 0,0 l/m 0 min 0 min 0 W/m 0,0 km/h (0 Bft) 97,87 %
10.06.2020 03:06 13,7 C 12,8 C 12,8 C 83 % 1017,2 hPa 0,0 l/m 0 min 0 min 0 W/m 0,0 km/h (0 Bft) 97,83 %
10.06.2020 03:08 13,7 C 12,8 C 12,8 C 83 % 1017,2 hPa 0,0 l/m 0 min 0 min 0 W/m 0,0 km/h (0 Bft) 97,87 %
10.06.2020 03:10 13,7 C 12,8 C 12,8 C 83 % 1017,2 hPa 0,0 l/m 0 min 0 min 0 W/m 0,0 km/h (0 Bft) 97,92 %
10.06.2020 03:12 13,7 C 12,8 C 12,8 C 83 % 1017,2 hPa 0,0 l/m 0 min 0 min 0 W/m 0,0 km/h (0 Bft) 97,87 %
10.06.2020 03:14 13,7 C 12,8 C 12,8 C 83 % 1017,2 hPa 0,0 l/m 0 min 0 min 0 W/m 3,2 km/h (1 Bft) 100,00 %
10.06.2020 03:16 13,7 C 12,8 C 12,8 C 83 % 1017,1 hPa 0,0 l/m 0 min 0 min 0 W/m 0,0 km/h (0 Bft) 100,00 %
10.06.2020 03:18 13,7 C 12,8 C 12,8 C 83 % 1017,1 hPa 0,0 l/m 0 min 0 min 0 W/m 0,0 km/h (0 Bft) 100,00 %
10.06.2020 03:20 13,7 C 12,8 C 12,8 C 83 % 1017,1 hPa 0,0 l/m 0 min 0 min 0 W/m 0,0 km/h (0 Bft) 100,00 %
10.06.2020 03:22 13,7 C 12,8 C 12,8 C 83 % 1017,1 hPa 0,0 l/m 0 min 0 min 0 W/m 0,0 km/h (0 Bft) 97,87 %
10.06.2020 03:24 13,7 C 12,8 C 12,8 C 83 % 1017,1 hPa 0,0 l/m 0 min 0 min 0 W/m 0,0 km/h (0 Bft) 97,87 %
10.06.2020 03:26 13,7 C 12,8 C 12,2 C 83 % 1017,1 hPa 0,0 l/m 0 min 0 min 0 W/m 0,0 km/h (0 Bft) 100,00 %
10.06.2020 03:28 13,6 C 12,2 C 12,2 C 83 % 1017,1 hPa 0,0 l/m 0 min 0 min 0 W/m 0,0 km/h (0 Bft) 95,74 %
10.06.2020 03:30 13,6 C 12,2 C 12,2 C 83 % 1017,0 hPa 0,0 l/m 0 min 0 min 0 W/m 0,0 km/h (0 Bft) 97,87 %
10.06.2020 03:32 13,6 C 12,2 C 12,2 C 83 % 1017,0 hPa 0,0 l/m 0 min 0 min 0 W/m 3,2 km/h (1 Bft) 93,48 %
10.06.2020 03:34 13,6 C 12,2 C 12,2 C 83 % 1017,0 hPa 0,0 l/m 0 min 0 min 0 W/m 3,2 km/h (1 Bft) 95,74 %
10.06.2020 03:36 13,6 C 12,2 C 12,2 C 83 % 1017,0 hPa 0,0 l/m 0 min 0 min 0 W/m 0,0 km/h (0 Bft) 95,74 %
10.06.2020 03:38 13,6 C 12,2 C 12,2 C 83 % 1017,0 hPa 0,0 l/m 0 min 0 min 0 W/m 0,0 km/h (0 Bft) 94,29 %
10.06.2020 03:40 13,6 C 12,2 C 12,2 C 83 % 1017,0 hPa 0,0 l/m 0 min 0 min 0 W/m 0,0 km/h (0 Bft) 94,55 %
10.06.2020 03:42 13,6 C 12,2 C 12,2 C 83 % 1017,0 hPa 0,0 l/m 0 min 0 min 0 W/m 3,2 km/h (1 Bft) 91,49 %
10.06.2020 03:44 13,6 C 12,2 C 12,2 C 83 % 1017,0 hPa 0,0 l/m 0 min 0 min 0 W/m 0,0 km/h (0 Bft) 95,74 %
10.06.2020 03:46 13,6 C 12,2 C 12,2 C 83 % 1016,9 hPa 0,0 l/m 0 min 0 min 0 W/m 0,0 km/h (0 Bft) 95,74 %
10.06.2020 03:48 13,5 C 12,2 C 12,2 C 83 % 1016,9 hPa 0,0 l/m 0 min 0 min 0 W/m 0,0 km/h (0 Bft) 95,74 %
10.06.2020 03:50 13,5 C 12,2 C 12,2 C 83 % 1016,9 hPa 0,0 l/m 0 min 0 min 0 W/m 3,2 km/h (1 Bft) 93,62 %
10.06.2020 03:52 13,5 C 12,2 C 12,2 C 84 % 1016,9 hPa 0,0 l/m 0 min 0 min 0 W/m 0,0 km/h (0 Bft) 95,65 %
10.06.2020 03:54 13,5 C 12,2 C 12,2 C 84 % 1016,9 hPa 0,0 l/m 0 min 0 min 0 W/m 3,2 km/h (1 Bft) 97,87 %
10.06.2020 03:56 13,4 C 12,2 C 12,2 C 84 % 1016,9 hPa 0,0 l/m 0 min 0 min 0 W/m 0,0 km/h (0 Bft) 95,74 %
10.06.2020 03:58 13,4 C 12,2 C 12,2 C 84 % 1016,9 hPa 0,0 l/m 0 min 0 min 0 W/m 0,0 km/h (0 Bft) 93,62 %
10.06.2020 04:00 13,4 C 12,2 C 12,2 C 84 % 1016,8 hPa 0,0 l/m 0 min 0 min 0 W/m 0,0 km/h (0 Bft) 95,74 %
10.06.2020 04:02 13,4 C 12,2 C 12,2 C 84 % 1016,9 hPa 0,0 l/m 0 min 0 min 0 W/m 0,0 km/h (0 Bft) 100,00 %
10.06.2020 04:04 13,4 C 12,2 C 12,2 C 84 % 1016,8 hPa 0,0 l/m 0 min 0 min 0 W/m 0,0 km/h (0 Bft) 95,65 %
10.06.2020 04:06 13,4 C 12,2 C 12,2 C 84 % 1016,8 hPa 0,0 l/m 0 min 0 min 0 W/m 0,0 km/h (0 Bft) 93,62 %
10.06.2020 04:08 13,4 C 12,2 C 12,2 C 84 % 1016,8 hPa 0,0 l/m 0 min 0 min 0 W/m 0,0 km/h (0 Bft) 93,62 %
10.06.2020 04:10 13,4 C 12,2 C 12,2 C 84 % 1016,8 hPa 0,0 l/m 0 min 0 min 0 W/m 0,0 km/h (0 Bft) 96,00 %
10.06.2020 04:12 13,4 C 12,2 C 12,2 C 84 % 1016,8 hPa 0,0 l/m 0 min 0 min 0 W/m 0,0 km/h (0 Bft) 95,74 %
10.06.2020 04:14 13,4 C 12,2 C 12,2 C 84 % 1016,8 hPa 0,0 l/m 0 min 0 min 0 W/m 0,0 km/h (0 Bft) 95,65 %
10.06.2020 04:16 13,4 C 12,2 C 12,2 C 84 % 1016,8 hPa 0,0 l/m 0 min 0 min 0 W/m 0,0 km/h (0 Bft) 93,62 %
10.06.2020 04:18 13,4 C 12,2 C 12,2 C 84 % 1016,8 hPa 0,0 l/m 0 min 0 min 0 W/m 0,0 km/h (0 Bft) 97,22 %
10.06.2020 04:20 13,4 C 12,2 C 12,2 C 84 % 1016,7 hPa 0,0 l/m 0 min 0 min 0 W/m 0,0 km/h (0 Bft) 93,62 %
10.06.2020 04:22 13,4 C 12,2 C 12,2 C 84 % 1016,7 hPa 0,0 l/m 0 min 0 min 0 W/m 0,0 km/h (0 Bft) 97,83 %
10.06.2020 04:24 13,3 C 12,2 C 12,2 C 84 % 1016,7 hPa 0,0 l/m 0 min 0 min 0 W/m 0,0 km/h (0 Bft) 95,74 %
10.06.2020 04:26 13,3 C 12,2 C 12,2 C 84 % 1016,7 hPa 0,0 l/m 0 min 0 min 0 W/m 3,2 km/h (1 Bft) 97,87 %
10.06.2020 04:28 13,3 C 12,2 C 12,2 C 84 % 1016,6 hPa 0,0 l/m 0 min 0 min 0 W/m 0,0 km/h (0 Bft) 97,87 %
10.06.2020 04:30 13,3 C 12,2 C 12,2 C 85 % 1016,6 hPa 0,0 l/m 0 min 0 min 0 W/m 0,0 km/h (0 Bft) 97,87 %
10.06.2020 04:32 13,3 C 12,2 C 12,2 C 85 % 1016,6 hPa 0,0 l/m 0 min 0 min 0 W/m 0,0 km/h (0 Bft) 97,87 %
10.06.2020 04:34 13,3 C 12,2 C 12,2 C 85 % 1016,5 hPa 0,0 l/m 0 min 0 min 0 W/m 0,0 km/h (0 Bft) 95,65 %
10.06.2020 04:36 13,3 C 12,2 C 12,2 C 85 % 1016,5 hPa 0,0 l/m 0 min 0 min 0 W/m 0,0 km/h (0 Bft) 97,87 %
10.06.2020 04:38 13,3 C 12,2 C 12,2 C 85 % 1016,5 hPa 0,0 l/m 0 min 0 min 0 W/m 3,2 km/h (1 Bft) 100,00 %
10.06.2020 04:40 13,3 C 11,7 C 12,2 C 85 % 1016,5 hPa 0,0 l/m 0 min 0 min 0 W/m 0,0 km/h (0 Bft) 100,00 %
10.06.2020 04:42 13,2 C 11,7 C 11,7 C 85 % 1016,5 hPa 0,0 l/m 0 min 0 min 0 W/m 0,0 km/h (0 Bft) 100,00 %
10.06.2020 04:44 13,2 C 11,7 C 11,7 C 85 % 1016,5 hPa 0,0 l/m 0 min 0 min 0 W/m 0,0 km/h (0 Bft) 97,83 %
10.06.2020 04:46 13,2 C 11,7 C 11,7 C 85 % 1016,5 hPa 0,0 l/m 0 min 0 min 0 W/m 0,0 km/h (0 Bft) 97,87 %
10.06.2020 04:48 13,2 C 11,7 C 11,7 C 85 % 1016,5 hPa 0,0 l/m 0 min 0 min 0 W/m 0,0 km/h (0 Bft) 95,74 %
10.06.2020 04:50 13,2 C 11,7 C 11,7 C 85 % 1016,5 hPa 0,0 l/m 0 min 0 min 0 W/m 0,0 km/h (0 Bft) 97,87 %
10.06.2020 04:52 13,1 C 11,7 C 11,7 C 85 % 1016,5 hPa 0,0 l/m 0 min 0 min 0 W/m 0,0 km/h (0 Bft) 100,00 %
10.06.2020 04:54 13,1 C 11,7 C 11,7 C 85 % 1016,5 hPa 0,0 l/m 0 min 0 min 0 W/m 0,0 km/h (0 Bft) 97,87 %
10.06.2020 04:56 13,1 C 11,7 C 11,7 C 85 % 1016,5 hPa 0,0 l/m 0 min 0 min 0 W/m 0,0 km/h (0 Bft) 95,65 %
10.06.2020 04:58 13,1 C 11,7 C 11,7 C 85 % 1016,5 hPa 0,0 l/m 0 min 0 min 0 W/m 0,0 km/h (0 Bft) 97,87 %
10.06.2020 05:00 13,1 C 11,7 C 11,7 C 85 % 1016,6 hPa 0,0 l/m 0 min 0 min 0 W/m 0,0 km/h (0 Bft) 100,00 %
10.06.2020 05:02 13,1 C 11,7 C 11,1 C 85 % 1016,6 hPa 0,0 l/m 0 min 0 min 0 W/m 0,0 km/h (0 Bft) 100,00 %
10.06.2020 05:04 13,0 C 11,7 C 11,1 C 85 % 1016,6 hPa 0,0 l/m 0 min 0 min 0 W/m 0,0 km/h (0 Bft) 97,87 %
10.06.2020 05:06 13,0 C 11,7 C 11,1 C 85 % 1016,5 hPa 0,0 l/m 0 min 0 min 0 W/m 0,0 km/h (0 Bft) 97,87 %
10.06.2020 05:08 12,9 C 11,7 C 11,1 C 85 % 1016,6 hPa 0,0 l/m 0 min 0 min 0 W/m 0,0 km/h (0 Bft) 97,83 %
10.06.2020 05:10 12,9 C 11,7 C 11,1 C 85 % 1016,6 hPa 0,0 l/m 0 min 0 min 0 W/m 0,0 km/h (0 Bft) 97,87 %
10.06.2020 05:12 12,9 C 11,1 C 11,1 C 85 % 1016,5 hPa 0,0 l/m 0 min 0 min 0 W/m 0,0 km/h (0 Bft) 97,87 %
10.06.2020 05:14 12,9 C 11,1 C 11,1 C 85 % 1016,5 hPa 0,0 l/m 0 min 0 min 0 W/m 0,0 km/h (0 Bft) 97,87 %
10.06.2020 05:16 12,8 C 11,7 C 11,1 C 85 % 1016,6 hPa 0,0 l/m 0 min 0 min 0 W/m 0,0 km/h (0 Bft) 97,87 %
10.06.2020 05:18 12,8 C 11,7 C 11,1 C 85 % 1016,5 hPa 0,0 l/m 0 min 0 min 0 W/m 0,0 km/h (0 Bft) 97,87 %
10.06.2020 05:20 12,8 C 11,7 C 11,1 C 86 % 1016,5 hPa 0,0 l/m 0 min 0 min 0 W/m 0,0 km/h (0 Bft) 97,83 %
10.06.2020 05:22 12,8 C 11,7 C 11,1 C 86 % 1016,5 hPa 0,0 l/m 0 min 0 min 0 W/m 0,0 km/h (0 Bft) 95,74 %
10.06.2020 05:24 12,8 C 11,7 C 11,1 C 86 % 1016,5 hPa 0,0 l/m 0 min 0 min 0 W/m 0,0 km/h (0 Bft) 95,74 %
10.06.2020 05:26 12,8 C 11,7 C 11,1 C 86 % 1016,5 hPa 0,0 l/m 0 min 0 min 0 W/m 0,0 km/h (0 Bft) 97,87 %
10.06.2020 05:28 12,7 C 11,7 C 11,1 C 86 % 1016,5 hPa 0,0 l/m 0 min 0 min 0 W/m 0,0 km/h (0 Bft) 97,87 %
10.06.2020 05:30 12,7 C 11,7 C 11,7 C 86 % 1016,5 hPa 0,0 l/m 0 min 0 min 0 W/m 0,0 km/h (0 Bft) 95,74 %
10.06.2020 05:32 12,7 C 11,7 C 11,7 C 86 % 1016,5 hPa 0,0 l/m 0 min 0 min 0 W/m 0,0 km/h (0 Bft) 97,83 %
10.06.2020 05:34 12,7 C 11,7 C 11,7 C 86 % 1016,4 hPa 0,0 l/m 0 min 0 min 0 W/m 0,0 km/h (0 Bft) 97,87 %
10.06.2020 05:36 12,7 C 11,7 C 11,7 C 86 % 1016,5 hPa 0,0 l/m 0 min 0 min 0 W/m 0,0 km/h (0 Bft) 97,87 %
10.06.2020 05:38 12,7 C 11,7 C 11,7 C 86 % 1016,4 hPa 0,0 l/m 0 min 0 min 0 W/m 0,0 km/h (0 Bft) 97,87 %
10.06.2020 05:40 12,6 C 11,7 C 11,7 C 86 % 1016,5 hPa 0,0 l/m 0 min 0 min 1 W/m 0,0 km/h (0 Bft) 98,15 %
10.06.2020 05:42 12,6 C 11,7 C 11,7 C 86 % 1016,5 hPa 0,0 l/m 0 min 0 min 5 W/m 0,0 km/h (0 Bft) 95,74 %
10.06.2020 05:44 12,6 C 11,7 C 11,7 C 87 % 1016,4 hPa 0,0 l/m 0 min 0 min 5 W/m 0,0 km/h (0 Bft) 97,87 %
10.06.2020 05:46 12,6 C 11,7 C 11,7 C 87 % 1016,5 hPa 0,0 l/m 0 min 0 min 5 W/m 0,0 km/h (0 Bft) 97,87 %
10.06.2020 05:48 12,6 C 11,7 C 11,7 C 87 % 1016,4 hPa 0,0 l/m 0 min 0 min 6 W/m 0,0 km/h (0 Bft) 97,83 %
10.06.2020 05:50 12,6 C 11,7 C 11,7 C 87 % 1016,4 hPa 0,0 l/m 0 min 0 min 8 W/m 0,0 km/h (0 Bft) 100,00 %
10.06.2020 05:52 12,6 C 11,7 C 11,7 C 87 % 1016,5 hPa 0,0 l/m 0 min 0 min 10 W/m 0,0 km/h (0 Bft) 100,00 %
10.06.2020 05:54 12,6 C 11,7 C 11,7 C 87 % 1016,5 hPa 0,0 l/m 0 min 0 min 11 W/m 0,0 km/h (0 Bft) 100,00 %
10.06.2020 05:56 12,6 C 11,7 C 11,7 C 87 % 1016,5 hPa 0,0 l/m 0 min 0 min 11 W/m 0,0 km/h (0 Bft) 100,00 %
10.06.2020 05:58 12,6 C 11,7 C 11,7 C 87 % 1016,5 hPa 0,0 l/m 0 min 0 min 11 W/m 0,0 km/h (0 Bft) 100,00 %
10.06.2020 06:00 12,6 C 11,7 C 11,7 C 87 % 1016,5 hPa 0,0 l/m 0 min 0 min 11 W/m 0,0 km/h (0 Bft) 100,00 %
10.06.2020 06:02 12,6 C 11,7 C 11,7 C 87 % 1016,5 hPa 0,0 l/m 0 min 0 min 12 W/m 0,0 km/h (0 Bft) 100,00 %
10.06.2020 06:04 12,6 C 11,7 C 11,7 C 87 % 1016,5 hPa 0,0 l/m 0 min 0 min 12 W/m 0,0 km/h (0 Bft) 100,00 %
10.06.2020 06:08 12,6 C 11,7 C 11,7 C 87 % 1016,5 hPa 0,0 l/m 0 min 0 min 14 W/m 0,0 km/h (0 Bft) 100,00 %
10.06.2020 06:10 12,6 C 11,7 C 11,7 C 87 % 1016,6 hPa 0,0 l/m 0 min 0 min 14 W/m 0,0 km/h (0 Bft) 100,00 %
10.06.2020 06:12 12,5 C 11,7 C 11,7 C 87 % 1016,5 hPa 0,0 l/m 0 min 0 min 17 W/m 0,0 km/h (0 Bft) 97,83 %
10.06.2020 06:14 12,5 C 11,7 C 11,7 C 87 % 1016,5 hPa 0,0 l/m 0 min 0 min 18 W/m 0,0 km/h (0 Bft) 100,00 %
10.06.2020 06:16 12,5 C 11,7 C 11,7 C 87 % 1016,5 hPa 0,0 l/m 0 min 0 min 19 W/m 0,0 km/h (0 Bft) 100,00 %
10.06.2020 06:18 12,5 C 11,7 C 11,7 C 87 % 1016,5 hPa 0,0 l/m 0 min 0 min 19 W/m 0,0 km/h (0 Bft) 97,87 %
10.06.2020 06:20 12,5 C 11,7 C 11,7 C 88 % 1016,5 hPa 0,0 l/m 0 min 0 min 18 W/m 0,0 km/h (0 Bft) 100,00 %
10.06.2020 06:22 12,5 C 12,2 C 11,7 C 88 % 1016,6 hPa 0,0 l/m 0 min 0 min 16 W/m 0,0 km/h (0 Bft) 97,87 %
10.06.2020 06:24 12,5 C 12,2 C 11,7 C 88 % 1016,5 hPa 0,0 l/m 0 min 0 min 14 W/m 0,0 km/h (0 Bft) 100,00 %
10.06.2020 06:26 12,6 C 12,2 C 11,7 C 88 % 1016,6 hPa 0,0 l/m 0 min 0 min 14 W/m 0,0 km/h (0 Bft) 100,00 %
10.06.2020 06:28 12,6 C 12,2 C 11,7 C 88 % 1016,6 hPa 0,0 l/m 0 min 0 min 14 W/m 0,0 km/h (0 Bft) 100,00 %
10.06.2020 06:30 12,6 C 12,2 C 11,7 C 88 % 1016,6 hPa 0,0 l/m 0 min 0 min 14 W/m 0,0 km/h (0 Bft) 97,87 %
10.06.2020 06:32 12,6 C 12,2 C 11,7 C 88 % 1016,5 hPa 0,0 l/m 0 min 0 min 14 W/m 0,0 km/h (0 Bft) 95,74 %
10.06.2020 06:34 12,6 C 12,2 C 11,7 C 88 % 1016,5 hPa 0,0 l/m 0 min 0 min 16 W/m 0,0 km/h (0 Bft) 97,87 %
10.06.2020 06:36 12,6 C 12,2 C 11,7 C 89 % 1016,5 hPa 0,0 l/m 0 min 0 min 18 W/m 0,0 km/h (0 Bft) 93,48 %
10.06.2020 06:38 12,6 C 12,2 C 11,7 C 89 % 1016,4 hPa 0,0 l/m 0 min 0 min 19 W/m 0,0 km/h (0 Bft) 97,87 %
10.06.2020 06:40 12,6 C 12,2 C 12,2 C 89 % 1016,4 hPa 0,0 l/m 0 min 0 min 21 W/m 0,0 km/h (0 Bft) 97,87 %
10.06.2020 06:42 12,7 C 12,2 C 12,2 C 89 % 1016,4 hPa 0,0 l/m 0 min 0 min 22 W/m 0,0 km/h (0 Bft) 97,87 %
10.06.2020 06:44 12,7 C 12,2 C 12,2 C 89 % 1016,4 hPa 0,0 l/m 0 min 0 min 23 W/m 0,0 km/h (0 Bft) 97,87 %
10.06.2020 06:46 12,7 C 12,2 C 12,2 C 89 % 1016,4 hPa 0,0 l/m 0 min 0 min 26 W/m 0,0 km/h (0 Bft) 97,83 %
10.06.2020 06:48 12,7 C 12,2 C 12,2 C 89 % 1016,4 hPa 0,0 l/m 0 min 0 min 30 W/m 0,0 km/h (0 Bft) 95,74 %
10.06.2020 06:50 12,7 C 12,8 C 12,2 C 89 % 1016,4 hPa 0,0 l/m 0 min 0 min 34 W/m 0,0 km/h (0 Bft) 97,87 %
10.06.2020 06:52 12,7 C 12,8 C 12,2 C 89 % 1016,4 hPa 0,0 l/m 0 min 0 min 37 W/m 0,0 km/h (0 Bft) 93,62 %
10.06.2020 06:54 12,7 C 12,8 C 12,2 C 89 % 1016,4 hPa 0,0 l/m 0 min 0 min 37 W/m 0,0 km/h (0 Bft) 100,00 %
10.06.2020 06:56 12,7 C 12,8 C 12,2 C 89 % 1016,4 hPa 0,0 l/m 0 min 0 min 37 W/m 0,0 km/h (0 Bft) 97,87 %
10.06.2020 06:58 12,8 C 12,8 C 12,2 C 89 % 1016,4 hPa 0,0 l/m 0 min 0 min 37 W/m 0,0 km/h (0 Bft) 97,83 %
10.06.2020 07:00 12,8 C 12,8 C 12,2 C 89 % 1016,4 hPa 0,0 l/m 0 min 0 min 37 W/m 0,0 km/h (0 Bft) 97,87 %
10.06.2020 07:02 12,8 C 12,8 C 12,2 C 89 % 1016,4 hPa 0,0 l/m 0 min 0 min 37 W/m 0,0 km/h (0 Bft) 97,87 %
10.06.2020 07:04 12,8 C 12,8 C 12,2 C 90 % 1016,5 hPa 0,0 l/m 0 min 0 min 40 W/m 0,0 km/h (0 Bft) 95,74 %
10.06.2020 07:06 12,8 C 12,8 C 12,2 C 90 % 1016,4 hPa 0,0 l/m 0 min 0 min 43 W/m 3,2 km/h (1 Bft) 97,87 %
10.06.2020 07:08 12,8 C 12,8 C 12,2 C 90 % 1016,4 hPa 0,0 l/m 0 min 0 min 44 W/m 0,0 km/h (0 Bft) 97,87 %
10.06.2020 07:10 12,9 C 12,8 C 12,2 C 90 % 1016,4 hPa 0,0 l/m 0 min 0 min 44 W/m 0,0 km/h (0 Bft) 95,92 %
10.06.2020 07:12 12,9 C 13,3 C 12,2 C 90 % 1016,4 hPa 0,0 l/m 0 min 0 min 45 W/m 0,0 km/h (0 Bft) 91,49 %
10.06.2020 07:14 12,9 C 13,3 C 12,2 C 90 % 1016,4 hPa 0,0 l/m 0 min 0 min 46 W/m 0,0 km/h (0 Bft) 97,87 %
10.06.2020 07:16 12,9 C 13,3 C 12,2 C 90 % 1016,4 hPa 0,0 l/m 0 min 0 min 47 W/m 0,0 km/h (0 Bft) 100,00 %
10.06.2020 07:18 13,0 C 13,3 C 12,8 C 90 % 1016,4 hPa 0,0 l/m 0 min 0 min 47 W/m 0,0 km/h (0 Bft) 100,00 %
10.06.2020 07:20 13,1 C 13,3 C 12,8 C 90 % 1016,4 hPa 0,0 l/m 0 min 0 min 47 W/m 3,2 km/h (1 Bft) 100,00 %
10.06.2020 07:22 13,1 C 13,3 C 12,8 C 90 % 1016,4 hPa 0,0 l/m 0 min 0 min 47 W/m 3,2 km/h (1 Bft) 100,00 %
10.06.2020 07:24 13,1 C 13,3 C 12,8 C 90 % 1016,4 hPa 0,0 l/m 0 min 0 min 47 W/m 0,0 km/h (0 Bft) 93,62 %
10.06.2020 07:26 13,1 C 13,3 C 12,8 C 90 % 1016,4 hPa 0,0 l/m 0 min 0 min 49 W/m 0,0 km/h (0 Bft) 95,74 %
10.06.2020 07:28 13,1 C 13,3 C 12,8 C 90 % 1016,5 hPa 0,0 l/m 0 min 0 min 49 W/m 0,0 km/h (0 Bft) 97,87 %
10.06.2020 07:30 13,2 C 13,3 C 12,8 C 90 % 1016,4 hPa 0,0 l/m 0 min 0 min 49 W/m 0,0 km/h (0 Bft) 97,87 %
10.06.2020 07:32 13,2 C 13,3 C 12,8 C 90 % 1016,5 hPa 0,0 l/m 0 min 0 min 50 W/m 0,0 km/h (0 Bft) 91,49 %
10.06.2020 07:34 13,2 C 13,3 C 12,8 C 91 % 1016,5 hPa 0,0 l/m 0 min 0 min 49 W/m 0,0 km/h (0 Bft) 95,74 %
10.06.2020 07:36 13,3 C 13,3 C 12,8 C 90 % 1016,5 hPa 0,0 l/m 0 min 0 min 49 W/m 0,0 km/h (0 Bft) 95,74 %
10.06.2020 07:38 13,3 C 13,3 C 12,8 C 90 % 1016,6 hPa 0,0 l/m 0 min 0 min 51 W/m 0,0 km/h (0 Bft) 95,74 %
10.06.2020 07:40 13,3 C 13,3 C 12,8 C 90 % 1016,5 hPa 0,0 l/m 0 min 0 min 54 W/m 0,0 km/h (0 Bft) 95,74 %
10.06.2020 07:42 13,3 C 13,3 C 12,8 C 90 % 1016,5 hPa 0,0 l/m 0 min 0 min 56 W/m 0,0 km/h (0 Bft) 95,74 %
10.06.2020 07:44 13,3 C 13,9 C 12,8 C 90 % 1016,5 hPa 0,0 l/m 0 min 0 min 56 W/m 0,0 km/h (0 Bft) 95,74 %
10.06.2020 07:46 13,4 C 13,9 C 12,8 C 90 % 1016,5 hPa 0,0 l/m 0 min 0 min 59 W/m 0,0 km/h (0 Bft) 95,74 %
10.06.2020 07:48 13,4 C 13,9 C 12,8 C 91 % 1016,5 hPa 0,0 l/m 0 min 0 min 61 W/m 0,0 km/h (0 Bft) 95,65 %
10.06.2020 07:50 13,4 C 13,9 C 12,8 C 91 % 1016,5 hPa 0,0 l/m 0 min 0 min 63 W/m 6,4 km/h (2 Bft) 95,74 %
10.06.2020 07:52 13,4 C 13,9 C 12,8 C 91 % 1016,5 hPa 0,0 l/m 0 min 0 min 65 W/m 0,0 km/h (0 Bft) 95,74 %
10.06.2020 07:54 13,5 C 13,9 C 12,8 C 91 % 1016,5 hPa 0,0 l/m 0 min 0 min 68 W/m 0,0 km/h (0 Bft) 95,74 %
10.06.2020 07:56 13,5 C 13,9 C 12,8 C 91 % 1016,5 hPa 0,0 l/m 0 min 0 min 70 W/m 0,0 km/h (0 Bft) 95,74 %
10.06.2020 07:58 13,6 C 13,9 C 12,8 C 91 % 1016,5 hPa 0,0 l/m 0 min 0 min 74 W/m 0,0 km/h (0 Bft) 95,74 %
10.06.2020 08:00 13,6 C 13,9 C 12,8 C 91 % 1016,6 hPa 0,0 l/m 0 min 0 min 77 W/m 0,0 km/h (0 Bft) 93,48 %
10.06.2020 08:02 13,6 C 13,9 C 12,8 C 90 % 1016,5 hPa 0,0 l/m 0 min 0 min 77 W/m 0,0 km/h (0 Bft) 95,74 %
10.06.2020 08:04 13,7 C 13,9 C 12,8 C 90 % 1016,5 hPa 0,0 l/m 0 min 0 min 77 W/m 0,0 km/h (0 Bft) 95,74 %
10.06.2020 08:06 13,7 C 13,9 C 12,8 C 90 % 1016,4 hPa 0,0 l/m 0 min 0 min 76 W/m 0,0 km/h (0 Bft) 95,74 %
10.06.2020 08:08 13,7 C 13,9 C 12,8 C 90 % 1016,4 hPa 0,0 l/m 0 min 0 min 75 W/m 0,0 km/h (0 Bft) 95,74 %
10.06.2020 08:10 13,7 C 13,9 C 12,8 C 90 % 1016,4 hPa 0,0 l/m 0 min 0 min 76 W/m 0,0 km/h (0 Bft) 94,29 %
10.06.2020 08:12 13,8 C 14,4 C 13,3 C 90 % 1016,4 hPa 0,0 l/m 0 min 0 min 77 W/m 0,0 km/h (0 Bft) 95,74 %
10.06.2020 08:14 13,8 C 14,4 C 13,3 C 91 % 1016,4 hPa 0,0 l/m 0 min 0 min 81 W/m 0,0 km/h (0 Bft) 95,65 %
10.06.2020 08:16 13,8 C 14,4 C 13,3 C 91 % 1016,4 hPa 0,0 l/m 0 min 0 min 86 W/m 0,0 km/h (0 Bft) 95,74 %
10.06.2020 08:18 13,9 C 14,4 C 13,3 C 91 % 1016,4 hPa 0,0 l/m 0 min 0 min 91 W/m 0,0 km/h (0 Bft) 97,87 %
10.06.2020 08:20 13,9 C 14,4 C 13,3 C 90 % 1016,4 hPa 0,0 l/m 0 min 0 min 94 W/m 0,0 km/h (0 Bft) 95,74 %
10.06.2020 08:22 13,9 C 14,4 C 13,3 C 90 % 1016,4 hPa 0,0 l/m 0 min 0 min 97 W/m 0,0 km/h (0 Bft) 97,87 %
10.06.2020 08:24 14,0 C 14,4 C 13,3 C 90 % 1016,4 hPa 0,0 l/m 0 min 0 min 101 W/m 0,0 km/h (0 Bft) 97,87 %
10.06.2020 08:26 14,0 C 14,4 C 13,3 C 90 % 1016,4 hPa 0,0 l/m 0 min 0 min 104 W/m 0,0 km/h (0 Bft) 97,83 %
10.06.2020 08:28 14,1 C 14,4 C 13,3 C 90 % 1016,4 hPa 0,0 l/m 0 min 0 min 105 W/m 3,2 km/h (1 Bft) 100,00 %
10.06.2020 08:30 14,1 C 14,4 C 13,3 C 90 % 1016,4 hPa 0,0 l/m 0 min 0 min 101 W/m 0,0 km/h (0 Bft) 97,87 %
10.06.2020 08:32 14,1 C 14,4 C 13,3 C 90 % 1016,4 hPa 0,0 l/m 0 min 0 min 97 W/m 0,0 km/h (0 Bft) 100,00 %
10.06.2020 08:34 14,1 C 14,4 C 13,3 C 90 % 1016,4 hPa 0,0 l/m 0 min 0 min 95 W/m 0,0 km/h (0 Bft) 100,00 %
10.06.2020 08:36 14,2 C 14,4 C 13,3 C 90 % 1016,4 hPa 0,0 l/m 0 min 0 min 95 W/m 0,0 km/h (0 Bft) 100,00 %
10.06.2020 08:38 14,2 C 14,4 C 13,3 C 90 % 1016,4 hPa 0,0 l/m 0 min 0 min 97 W/m 0,0 km/h (0 Bft) 97,83 %
10.06.2020 08:40 14,3 C 14,4 C 13,3 C 90 % 1016,4 hPa 0,0 l/m 0 min 0 min 97 W/m 0,0 km/h (0 Bft) 100,00 %
10.06.2020 08:42 14,3 C 14,4 C 13,3 C 90 % 1016,4 hPa 0,0 l/m 0 min 0 min 95 W/m 0,0 km/h (0 Bft) 100,00 %
10.06.2020 08:44 14,3 C 14,4 C 13,3 C 89 % 1016,4 hPa 0,0 l/m 0 min 0 min 97 W/m 3,2 km/h (1 Bft) 100,00 %
10.06.2020 08:46 14,3 C 14,4 C 13,3 C 89 % 1016,4 hPa 0,0 l/m 0 min 0 min 101 W/m 0,0 km/h (0 Bft) 100,00 %
10.06.2020 08:48 14,3 C 14,4 C 13,3 C 89 % 1016,4 hPa 0,0 l/m 0 min 0 min 108 W/m 0,0 km/h (0 Bft) 100,00 %
10.06.2020 08:50 14,3 C 15,0 C 13,3 C 89 % 1016,5 hPa 0,0 l/m 0 min 0 min 115 W/m 0,0 km/h (0 Bft) 100,00 %
10.06.2020 08:52 14,3 C 15,0 C 13,3 C 89 % 1016,4 hPa 0,0 l/m 0 min 0 min 125 W/m 0,0 km/h (0 Bft) 100,00 %
10.06.2020 08:54 14,3 C 15,0 C 13,3 C 89 % 1016,5 hPa 0,0 l/m 0 min 0 min 138 W/m 0,0 km/h (0 Bft) 100,00 %
10.06.2020 08:56 14,3 C 15,0 C 13,9 C 89 % 1016,5 hPa 0,0 l/m 0 min 0 min 150 W/m 0,0 km/h (0 Bft) 97,87 %
10.06.2020 08:58 14,3 C 15,6 C 13,9 C 89 % 1016,5 hPa 0,0 l/m 0 min 0 min 156 W/m 0,0 km/h (0 Bft) 100,00 %
10.06.2020 09:00 14,4 C 15,6 C 13,9 C 89 % 1016,5 hPa 0,0 l/m 0 min 0 min 153 W/m 0,0 km/h (0 Bft) 100,00 %
10.06.2020 09:02 14,4 C 15,6 C 13,9 C 89 % 1016,5 hPa 0,0 l/m 0 min 0 min 148 W/m 0,0 km/h (0 Bft) 98,15 %
10.06.2020 09:04 14,5 C 15,6 C 13,9 C 89 % 1016,6 hPa 0,0 l/m 0 min 0 min 144 W/m 0,0 km/h (0 Bft) 100,00 %
10.06.2020 09:06 14,6 C 15,6 C 13,9 C 89 % 1016,6 hPa 0,0 l/m 0 min 0 min 144 W/m 0,0 km/h (0 Bft) 97,83 %
10.06.2020 09:08 14,6 C 15,6 C 13,9 C 88 % 1016,6 hPa 0,0 l/m 0 min 0 min 146 W/m 0,0 km/h (0 Bft) 96,00 %
10.06.2020 09:10 14,6 C 15,6 C 13,9 C 88 % 1016,6 hPa 0,0 l/m 0 min 0 min 149 W/m 3,2 km/h (1 Bft) 95,92 %
10.06.2020 09:12 14,6 C 15,6 C 13,9 C 88 % 1016,6 hPa 0,0 l/m 0 min 0 min 151 W/m 0,0 km/h (0 Bft) 97,87 %
10.06.2020 09:14 14,7 C 15,6 C 13,9 C 88 % 1016,6 hPa 0,0 l/m 0 min 0 min 153 W/m 0,0 km/h (0 Bft) 97,87 %
10.06.2020 09:16 14,7 C 15,6 C 13,9 C 88 % 1016,6 hPa 0,0 l/m 0 min 0 min 156 W/m 0,0 km/h (0 Bft) 97,87 %
10.06.2020 09:18 14,8 C 16,1 C 13,9 C 88 % 1016,6 hPa 0,0 l/m 0 min 0 min 158 W/m 3,2 km/h (1 Bft) 97,87 %
10.06.2020 09:20 14,8 C 16,1 C 13,9 C 88 % 1016,6 hPa 0,0 l/m 0 min 0 min 160 W/m 0,0 km/h (0 Bft) 97,14 %
10.06.2020 09:22 14,8 C 15,6 C 13,9 C 88 % 1016,6 hPa 0,0 l/m 0 min 0 min 158 W/m 0,0 km/h (0 Bft) 97,87 %
10.06.2020 09:24 14,9 C 16,1 C 13,9 C 88 % 1016,6 hPa 0,0 l/m 0 min 0 min 160 W/m 3,2 km/h (1 Bft) 97,83 %
10.06.2020 09:26 14,9 C 16,1 C 14,4 C 88 % 1016,6 hPa 0,0 l/m 0 min 0 min 164 W/m 0,0 km/h (0 Bft) 97,87 %
10.06.2020 09:28 14,9 C 16,1 C 14,4 C 88 % 1016,6 hPa 0,0 l/m 0 min 0 min 174 W/m 0,0 km/h (0 Bft) 97,87 %
10.06.2020 09:30 15,1 C 16,1 C 14,4 C 88 % 1016,6 hPa 0,0 l/m 0 min 0 min 184 W/m 0,0 km/h (0 Bft) 97,87 %
10.06.2020 09:32 15,1 C 16,7 C 14,4 C 88 % 1016,6 hPa 0,0 l/m 0 min 0 min 192 W/m 0,0 km/h (0 Bft) 95,74 %
10.06.2020 09:34 15,1 C 16,7 C 14,4 C 88 % 1016,6 hPa 0,0 l/m 0 min 0 min 196 W/m 0,0 km/h (0 Bft) 100,00 %
10.06.2020 09:36 15,2 C 16,7 C 14,4 C 88 % 1016,6 hPa 0,0 l/m 0 min 0 min 200 W/m 0,0 km/h (0 Bft) 97,83 %
10.06.2020 09:38 15,2 C 16,7 C 14,4 C 88 % 1016,6 hPa 0,0 l/m 0 min 0 min 205 W/m 0,0 km/h (0 Bft) 97,87 %
10.06.2020 09:40 15,3 C 16,7 C 14,4 C 88 % 1016,6 hPa 0,0 l/m 0 min 0 min 215 W/m 0,0 km/h (0 Bft) 97,87 %
10.06.2020 09:42 15,3 C 16,7 C 15,0 C 88 % 1016,5 hPa 0,0 l/m 0 min 0 min 228 W/m 3,2 km/h (1 Bft) 95,74 %
10.06.2020 09:44 15,3 C 17,2 C 15,0 C 88 % 1016,6 hPa 0,0 l/m 0 min 0 min 241 W/m 0,0 km/h (0 Bft) 97,87 %
10.06.2020 09:46 15,4 C 17,2 C 15,0 C 88 % 1016,5 hPa 0,0 l/m 0 min 0 min 248 W/m 0,0 km/h (0 Bft) 100,00 %
10.06.2020 09:48 15,5 C 17,2 C 15,0 C 88 % 1016,5 hPa 0,0 l/m 0 min 0 min 251 W/m 3,2 km/h (1 Bft) 97,83 %
10.06.2020 09:50 15,6 C 17,8 C 15,6 C 88 % 1016,5 hPa 0,0 l/m 0 min 0 min 251 W/m 0,0 km/h (0 Bft) 100,00 %
10.06.2020 09:52 15,6 C 17,2 C 15,0 C 87 % 1016,5 hPa 0,0 l/m 0 min 0 min 251 W/m 6,4 km/h (2 Bft) 100,00 %
10.06.2020 09:54 15,6 C 17,2 C 15,6 C 86 % 1016,6 hPa 0,0 l/m 0 min 0 min 261 W/m 3,2 km/h (1 Bft) 100,00 %
10.06.2020 09:56 15,7 C 17,8 C 15,6 C 86 % 1016,6 hPa 0,0 l/m 0 min 0 min 274 W/m 3,2 km/h (1 Bft) 97,87 %
10.06.2020 09:58 15,8 C 18,3 C 15,6 C 87 % 1016,5 hPa 0,0 l/m 0 min 0 min 279 W/m 0,0 km/h (0 Bft) 100,00 %
10.06.2020 10:00 15,8 C 18,3 C 15,6 C 87 % 1016,5 hPa 0,0 l/m 0 min 0 min 283 W/m 3,2 km/h (1 Bft) 100,00 %
10.06.2020 10:02 15,9 C 17,8 C 15,6 C 86 % 1016,4 hPa 0,0 l/m 0 min 0 min 293 W/m 0,0 km/h (0 Bft) 100,00 %
10.06.2020 10:04 15,9 C 18,3 C 16,1 C 86 % 1016,4 hPa 0,0 l/m 0 min 0 min 311 W/m 0,0 km/h (0 Bft) 100,00 %
10.06.2020 10:06 16,1 C 18,3 C 16,1 C 86 % 1016,5 hPa 0,0 l/m 0 min 0 min 319 W/m 3,2 km/h (1 Bft) 97,87 %
10.06.2020 10:08 16,1 C 18,3 C 16,7 C 85 % 1016,5 hPa 0,0 l/m 0 min 0 min 341 W/m 0,0 km/h (0 Bft) 100,00 %
10.06.2020 10:10 16,2 C 18,9 C 16,7 C 85 % 1016,5 hPa 0,0 l/m 0 min 0 min 318 W/m 0,0 km/h (0 Bft) 100,00 %
10.06.2020 10:12 16,2 C 18,9 C 16,7 C 85 % 1016,5 hPa 0,0 l/m 0 min 0 min 312 W/m 0,0 km/h (0 Bft) 100,00 %
10.06.2020 10:14 16,3 C 18,3 C 16,1 C 85 % 1016,5 hPa 0,0 l/m 0 min 0 min 315 W/m 6,4 km/h (2 Bft) 100,00 %
10.06.2020 10:16 16,3 C 18,3 C 16,1 C 85 % 1016,6 hPa 0,0 l/m 0 min 0 min 306 W/m 3,2 km/h (1 Bft) 95,65 %
10.06.2020 10:18 16,4 C 18,3 C 16,1 C 85 % 1016,6 hPa 0,0 l/m 0 min 0 min 296 W/m 0,0 km/h (0 Bft) 97,87 %
10.06.2020 10:20 16,5 C 18,9 C 16,7 C 85 % 1016,6 hPa 0,0 l/m 0 min 0 min 302 W/m 0,0 km/h (0 Bft) 97,87 %
10.06.2020 10:22 16,6 C 18,9 C 16,7 C 85 % 1016,6 hPa 0,0 l/m 0 min 0 min 316 W/m 3,2 km/h (1 Bft) 97,87 %
10.06.2020 10:24 16,6 C 18,9 C 16,7 C 85 % 1016,6 hPa 0,0 l/m 0 min 0 min 326 W/m 0,0 km/h (0 Bft) 97,87 %
10.06.2020 10:26 16,7 C 18,9 C 16,7 C 84 % 1016,6 hPa 0,0 l/m 0 min 0 min 304 W/m 0,0 km/h (0 Bft) 97,83 %
10.06.2020 10:28 16,8 C 19,4 C 16,7 C 84 % 1016,5 hPa 0,0 l/m 0 min 0 min 308 W/m 3,2 km/h (1 Bft) 97,87 %
10.06.2020 10:30 16,8 C 19,4 C 16,7 C 84 % 1016,5 hPa 0,0 l/m 0 min 0 min 311 W/m 0,0 km/h (0 Bft) 97,87 %
10.06.2020 10:32 16,9 C 19,4 C 16,7 C 84 % 1016,5 hPa 0,0 l/m 0 min 0 min 307 W/m 0,0 km/h (0 Bft) 97,87 %
10.06.2020 10:34 17,0 C 19,4 C 16,7 C 85 % 1016,5 hPa 0,0 l/m 0 min 0 min 303 W/m 0,0 km/h (0 Bft) 97,87 %
10.06.2020 10:36 17,1 C 19,4 C 16,7 C 84 % 1016,5 hPa 0,0 l/m 0 min 0 min 306 W/m 3,2 km/h (1 Bft) 95,74 %
10.06.2020 10:38 17,1 C 18,9 C 16,7 C 83 % 1016,5 hPa 0,0 l/m 0 min 0 min 312 W/m 0,0 km/h (0 Bft) 95,65 %
10.06.2020 10:40 17,2 C 19,4 C 16,7 C 83 % 1016,5 hPa 0,0 l/m 0 min 0 min 328 W/m 0,0 km/h (0 Bft) 97,96 %
10.06.2020 10:42 17,2 C 19,4 C 16,7 C 83 % 1016,5 hPa 0,0 l/m 0 min 0 min 345 W/m 0,0 km/h (0 Bft) 97,83 %
10.06.2020 10:44 17,3 C 20,0 C 16,7 C 83 % 1016,5 hPa 0,0 l/m 0 min 0 min 353 W/m 0,0 km/h (0 Bft) 97,87 %
10.06.2020 10:46 17,4 C 20,0 C 17,2 C 83 % 1016,4 hPa 0,0 l/m 0 min 0 min 357 W/m 0,0 km/h (0 Bft) 93,62 %
10.06.2020 10:48 17,4 C 20,0 C 16,7 C 83 % 1016,4 hPa 0,0 l/m 0 min 0 min 363 W/m 0,0 km/h (0 Bft) 93,62 %
10.06.2020 10:50 17,5 C 20,0 C 17,2 C 82 % 1016,4 hPa 0,0 l/m 0 min 0 min 378 W/m 0,0 km/h (0 Bft) 97,87 %
10.06.2020 10:52 17,6 C 20,0 C 17,2 C 82 % 1016,4 hPa 0,0 l/m 0 min 0 min 379 W/m 0,0 km/h (0 Bft) 97,87 %
10.06.2020 10:54 17,6 C 20,6 C 17,2 C 82 % 1016,5 hPa 0,0 l/m 0 min 0 min 371 W/m 0,0 km/h (0 Bft) 95,65 %
10.06.2020 10:56 17,7 C 20,0 C 17,2 C 82 % 1016,4 hPa 0,0 l/m 0 min 0 min 349 W/m 0,0 km/h (0 Bft) 95,74 %
10.06.2020 10:58 17,7 C 20,0 C 17,2 C 82 % 1016,5 hPa 0,0 l/m 0 min 0 min 357 W/m 3,2 km/h (1 Bft) 95,74 %
10.06.2020 11:00 17,7 C 20,0 C 17,2 C 81 % 1016,4 hPa 0,0 l/m 0 min 0 min 356 W/m 3,2 km/h (1 Bft) 94,29 %
10.06.2020 11:02 17,8 C 19,4 C 17,2 C 80 % 1016,4 hPa 0,0 l/m 0 min 0 min 358 W/m 3,2 km/h (1 Bft) 97,83 %
10.06.2020 11:04 17,8 C 20,0 C 17,2 C 80 % 1016,4 hPa 0,0 l/m 0 min 0 min 377 W/m 3,2 km/h (1 Bft) 95,74 %
10.06.2020 11:06 17,9 C 20,6 C 17,8 C 81 % 1016,3 hPa 0,0 l/m 2 min 0 min 406 W/m 3,2 km/h (1 Bft) 95,74 %
10.06.2020 11:08 17,9 C 21,1 C 18,3 C 81 % 1016,3 hPa 0,0 l/m 2 min 0 min 458 W/m 0,0 km/h (0 Bft) 97,83 %
10.06.2020 11:10 18,0 C 21,1 C 18,3 C 81 % 1016,3 hPa 0,0 l/m 2 min 0 min 449 W/m 3,2 km/h (1 Bft) 98,21 %
10.06.2020 11:12 18,1 C 21,7 C 18,3 C 81 % 1016,3 hPa 0,0 l/m 2 min 0 min 463 W/m 3,2 km/h (1 Bft) 97,87 %
10.06.2020 11:14 18,2 C 22,2 C 18,9 C 81 % 1016,2 hPa 0,0 l/m 2 min 0 min 532 W/m 0,0 km/h (0 Bft) 93,48 %
10.06.2020 11:16 18,3 C 22,2 C 18,9 C 82 % 1016,2 hPa 0,0 l/m 2 min 0 min 513 W/m 3,2 km/h (1 Bft) 97,87 %
10.06.2020 11:18 18,3 C 21,7 C 18,3 C 80 % 1016,3 hPa 0,0 l/m 0 min 0 min 363 W/m 3,2 km/h (1 Bft) 93,62 %
10.06.2020 11:20 18,4 C 21,1 C 18,3 C 81 % 1016,2 hPa 0,0 l/m 0 min 0 min 332 W/m 0,0 km/h (0 Bft) 95,74 %
10.06.2020 11:22 18,4 C 21,1 C 17,8 C 79 % 1016,2 hPa 0,0 l/m 0 min 0 min 345 W/m 3,2 km/h (1 Bft) 95,74 %
10.06.2020 11:24 18,5 C 21,1 C 17,8 C 79 % 1016,2 hPa 0,0 l/m 0 min 0 min 372 W/m 3,2 km/h (1 Bft) 97,87 %
10.06.2020 11:26 18,6 C 20,6 C 17,8 C 80 % 1016,2 hPa 0,0 l/m 0 min 0 min 372 W/m 3,2 km/h (1 Bft) 95,65 %
10.06.2020 11:28 18,6 C 20,6 C 17,8 C 80 % 1016,2 hPa 0,0 l/m 0 min 0 min 342 W/m 0,0 km/h (0 Bft) 93,62 %
10.06.2020 11:30 18,6 C 20,0 C 17,8 C 79 % 1016,2 hPa 0,0 l/m 0 min 0 min 321 W/m 6,4 km/h (2 Bft) 93,62 %
10.06.2020 11:32 18,7 C 20,6 C 17,8 C 79 % 1016,2 hPa 0,0 l/m 0 min 0 min 332 W/m 6,4 km/h (2 Bft) 93,62 %
10.06.2020 11:34 18,7 C 20,6 C 17,8 C 79 % 1016,1 hPa 0,0 l/m 0 min 0 min 353 W/m 3,2 km/h (1 Bft) 95,74 %
10.06.2020 11:36 18,7 C 21,1 C 17,8 C 79 % 1016,1 hPa 0,0 l/m 0 min 0 min 371 W/m 3,2 km/h (1 Bft) 95,74 %
10.06.2020 11:38 18,8 C 21,7 C 18,3 C 79 % 1016,1 hPa 0,0 l/m 2 min 0 min 454 W/m 3,2 km/h (1 Bft) 95,65 %
10.06.2020 11:40 18,8 C 21,7 C 18,3 C 79 % 1016,1 hPa 0,0 l/m 2 min 0 min 482 W/m 0,0 km/h (0 Bft) 93,62 %
10.06.2020 11:42 18,8 C 21,7 C 18,3 C 78 % 1016,1 hPa 0,0 l/m 2 min 0 min 470 W/m 3,2 km/h (1 Bft) 95,74 %
10.06.2020 11:44 18,9 C 22,2 C 18,9 C 79 % 1016,1 hPa 0,0 l/m 2 min 0 min 458 W/m 6,4 km/h (2 Bft) 95,74 %
10.06.2020 11:46 18,9 C 22,2 C 18,9 C 80 % 1016,1 hPa 0,0 l/m 2 min 0 min 449 W/m 3,2 km/h (1 Bft) 95,74 %
10.06.2020 11:48 19,0 C 22,2 C 18,9 C 78 % 1016,0 hPa 0,0 l/m 2 min 0 min 432 W/m 3,2 km/h (1 Bft) 93,62 %
10.06.2020 11:50 18,9 C 21,7 C 18,9 C 76 % 1016,0 hPa 0,0 l/m 2 min 0 min 438 W/m 6,4 km/h (2 Bft) 95,65 %
10.06.2020 11:52 19,0 C 21,7 C 18,9 C 78 % 1016,1 hPa 0,0 l/m 2 min 0 min 446 W/m 6,4 km/h (2 Bft) 93,62 %
10.06.2020 11:54 19,1 C 21,1 C 18,9 C 77 % 1016,1 hPa 0,0 l/m 0 min 0 min 394 W/m 3,2 km/h (1 Bft) 95,74 %
10.06.2020 11:56 19,1 C 21,1 C 18,3 C 77 % 1016,1 hPa 0,0 l/m 0 min 0 min 387 W/m 9,7 km/h (2 Bft) 93,62 %
10.06.2020 11:58 19,1 C 21,1 C 18,3 C 77 % 1016,0 hPa 0,0 l/m 2 min 0 min 443 W/m 6,4 km/h (2 Bft) 93,62 %
10.06.2020 12:00 19,1 C 21,7 C 18,3 C 76 % 1016,0 hPa 0,0 l/m 2 min 0 min 480 W/m 6,4 km/h (2 Bft) 93,62 %
10.06.2020 12:02 19,1 C 22,2 C 18,9 C 76 % 1016,0 hPa 0,0 l/m 2 min 0 min 511 W/m 6,4 km/h (2 Bft) 95,74 %
10.06.2020 12:04 19,1 C 22,2 C 18,9 C 77 % 1016,0 hPa 0,0 l/m 2 min 0 min 463 W/m 6,4 km/h (2 Bft) 93,62 %
10.06.2020 12:08 19,2 C 22,2 C 18,9 C 78 % 1015,9 hPa 0,0 l/m 4 min 0 min 441 W/m 6,4 km/h (2 Bft) 97,87 %
10.06.2020 12:10 19,2 C 21,7 C 18,9 C 77 % 1015,9 hPa 0,0 l/m 2 min 0 min 450 W/m 6,4 km/h (2 Bft) 95,74 %
10.06.2020 12:12 19,3 C 22,2 C 18,9 C 77 % 1015,8 hPa 0,0 l/m 2 min 0 min 453 W/m 3,2 km/h (1 Bft) 97,83 %
10.06.2020 12:14 19,3 C 21,7 C 18,9 C 78 % 1015,8 hPa 0,0 l/m 2 min 0 min 438 W/m 3,2 km/h (1 Bft) 100,00 %
10.06.2020 12:16 19,3 C 21,7 C 18,9 C 76 % 1015,8 hPa 0,0 l/m 0 min 0 min 436 W/m 12,9 km/h (3 Bft) 100,00 %
10.06.2020 12:18 19,3 C 21,7 C 18,9 C 77 % 1015,8 hPa 0,0 l/m 2 min 0 min 458 W/m 3,2 km/h (1 Bft) 100,00 %
10.06.2020 12:20 19,3 C 21,7 C 18,9 C 76 % 1015,8 hPa 0,0 l/m 2 min 0 min 459 W/m 3,2 km/h (1 Bft) 97,87 %
10.06.2020 12:22 19,4 C 21,7 C 18,9 C 77 % 1015,9 hPa 0,0 l/m 2 min 0 min 454 W/m 6,4 km/h (2 Bft) 95,74 %
10.06.2020 12:24 19,4 C 22,2 C 18,9 C 77 % 1015,9 hPa 0,0 l/m 0 min 0 min 437 W/m 6,4 km/h (2 Bft) 97,83 %
10.06.2020 12:26 19,5 C 21,7 C 18,9 C 77 % 1015,9 hPa 0,0 l/m 0 min 0 min 405 W/m 12,9 km/h (3 Bft) 95,74 %
10.06.2020 12:28 19,5 C 21,7 C 18,9 C 76 % 1015,9 hPa 0,0 l/m 0 min 0 min 392 W/m 3,2 km/h (1 Bft) 100,00 %
10.06.2020 12:30 19,5 C 21,7 C 18,3 C 77 % 1015,9 hPa 0,0 l/m 0 min 0 min 382 W/m 3,2 km/h (1 Bft) 100,00 %
10.06.2020 12:32 19,5 C 21,1 C 18,3 C 76 % 1015,8 hPa 0,0 l/m 0 min 0 min 369 W/m 6,4 km/h (2 Bft) 100,00 %
10.06.2020 12:34 19,5 C 21,1 C 18,3 C 77 % 1015,9 hPa 0,0 l/m 0 min 0 min 367 W/m 3,2 km/h (1 Bft) 100,00 %
10.06.2020 12:36 19,6 C 21,7 C 18,3 C 77 % 1015,9 hPa 0,0 l/m 0 min 0 min 381 W/m 3,2 km/h (1 Bft) 100,00 %
10.06.2020 12:38 19,6 C 21,7 C 18,3 C 77 % 1015,9 hPa 0,0 l/m 0 min 0 min 398 W/m 6,4 km/h (2 Bft) 100,00 %
10.06.2020 12:40 19,6 C 21,7 C 18,3 C 77 % 1015,8 hPa 0,0 l/m 0 min 0 min 408 W/m 6,4 km/h (2 Bft) 100,00 %
10.06.2020 12:42 19,6 C 21,7 C 18,3 C 76 % 1015,8 hPa 0,0 l/m 0 min 0 min 414 W/m 6,4 km/h (2 Bft) 100,00 %
10.06.2020 12:44 19,6 C 21,7 C 18,3 C 77 % 1015,8 hPa 0,0 l/m 0 min 0 min 416 W/m 3,2 km/h (1 Bft) 100,00 %
10.06.2020 12:46 19,6 C 21,7 C 18,3 C 77 % 1015,8 hPa 0,0 l/m 0 min 0 min 430 W/m 3,2 km/h (1 Bft) 100,00 %
10.06.2020 12:48 19,6 C 21,7 C 18,3 C 77 % 1015,7 hPa 0,0 l/m 2 min 0 min 451 W/m 6,4 km/h (2 Bft) 97,83 %
10.06.2020 12:50 19,7 C 22,2 C 18,9 C 77 % 1015,7 hPa 0,0 l/m 2 min 0 min 463 W/m 6,4 km/h (2 Bft) 100,00 %
10.06.2020 12:52 19,7 C 22,2 C 18,9 C 76 % 1015,7 hPa 0,0 l/m 2 min 0 min 472 W/m 6,4 km/h (2 Bft) 100,00 %
10.06.2020 12:54 19,7 C 22,2 C 18,9 C 76 % 1015,6 hPa 0,0 l/m 2 min 0 min 474 W/m 6,4 km/h (2 Bft) 100,00 %
10.06.2020 12:56 19,7 C 22,2 C 18,9 C 77 % 1015,6 hPa 0,0 l/m 2 min 0 min 475 W/m 6,4 km/h (2 Bft) 100,00 %
10.06.2020 12:58 19,7 C 22,2 C 18,9 C 76 % 1015,6 hPa 0,0 l/m 2 min 0 min 475 W/m 6,4 km/h (2 Bft) 100,00 %
10.06.2020 13:00 19,8 C 22,2 C 18,9 C 76 % 1015,6 hPa 0,0 l/m 2 min 0 min 459 W/m 6,4 km/h (2 Bft) 100,00 %
10.06.2020 13:02 19,8 C 22,8 C 18,9 C 76 % 1015,7 hPa 0,0 l/m 0 min 0 min 450 W/m 3,2 km/h (1 Bft) 97,87 %
10.06.2020 13:04 19,8 C 22,2 C 18,9 C 75 % 1015,6 hPa 0,0 l/m 0 min 0 min 444 W/m 6,4 km/h (2 Bft) 97,87 %
10.06.2020 13:06 19,8 C 22,2 C 18,9 C 75 % 1015,6 hPa 0,0 l/m 0 min 0 min 448 W/m 6,4 km/h (2 Bft) 97,87 %
10.06.2020 13:08 19,9 C 22,2 C 18,9 C 75 % 1015,6 hPa 0,0 l/m 2 min 0 min 460 W/m 12,9 km/h (3 Bft) 97,87 %
10.06.2020 13:10 19,9 C 22,2 C 18,9 C 75 % 1015,6 hPa 0,0 l/m 2 min 0 min 493 W/m 3,2 km/h (1 Bft) 97,92 %
10.06.2020 13:12 19,9 C 22,8 C 18,9 C 76 % 1015,6 hPa 0,0 l/m 2 min 0 min 554 W/m 3,2 km/h (1 Bft) 97,87 %
10.06.2020 13:14 19,9 C 22,2 C 18,9 C 76 % 1015,6 hPa 0,0 l/m 2 min 0 min 508 W/m 12,9 km/h (3 Bft) 97,83 %
10.06.2020 13:16 20,0 C 22,2 C 18,9 C 75 % 1015,6 hPa 0,0 l/m 2 min 0 min 486 W/m 6,4 km/h (2 Bft) 97,87 %
10.06.2020 13:18 20,0 C 22,8 C 19,4 C 75 % 1015,5 hPa 0,0 l/m 2 min 0 min 504 W/m 3,2 km/h (1 Bft) 97,87 %
10.06.2020 13:20 20,1 C 22,8 C 19,4 C 75 % 1015,5 hPa 0,0 l/m 2 min 0 min 507 W/m 3,2 km/h (1 Bft) 97,87 %
10.06.2020 13:22 20,1 C 22,8 C 19,4 C 75 % 1015,5 hPa 0,0 l/m 2 min 0 min 530 W/m 3,2 km/h (1 Bft) 97,87 %
10.06.2020 13:24 20,1 C 23,3 C 19,4 C 75 % 1015,5 hPa 0,0 l/m 2 min 0 min 530 W/m 6,4 km/h (2 Bft) 97,87 %
10.06.2020 13:26 20,1 C 22,8 C 19,4 C 75 % 1015,5 hPa 0,0 l/m 2 min 0 min 502 W/m 6,4 km/h (2 Bft) 97,83 %
10.06.2020 13:28 20,1 C 22,2 C 19,4 C 74 % 1015,5 hPa 0,0 l/m 2 min 0 min 467 W/m 12,9 km/h (3 Bft) 97,87 %
10.06.2020 13:30 20,1 C 21,7 C 18,9 C 73 % 1015,5 hPa 0,0 l/m 0 min 0 min 441 W/m 6,4 km/h (2 Bft) 97,87 %
10.06.2020 13:32 20,1 C 21,1 C 18,9 C 73 % 1015,5 hPa 0,0 l/m 0 min 0 min 418 W/m 6,4 km/h (2 Bft) 97,87 %
10.06.2020 13:34 20,1 C 21,7 C 18,9 C 72 % 1015,5 hPa 0,0 l/m 0 min 0 min 390 W/m 6,4 km/h (2 Bft) 95,74 %
10.06.2020 13:36 20,1 C 21,7 C 18,9 C 74 % 1015,4 hPa 0,0 l/m 0 min 0 min 384 W/m 3,2 km/h (1 Bft) 95,65 %
10.06.2020 13:38 20,1 C 21,7 C 18,9 C 73 % 1015,4 hPa 0,0 l/m 0 min 0 min 389 W/m 3,2 km/h (1 Bft) 97,87 %
10.06.2020 13:40 20,1 C 21,7 C 18,9 C 74 % 1015,5 hPa 0,0 l/m 0 min 0 min 396 W/m 3,2 km/h (1 Bft) 97,14 %
10.06.2020 13:42 20,1 C 21,7 C 18,9 C 74 % 1015,5 hPa 0,0 l/m 0 min 0 min 396 W/m 3,2 km/h (1 Bft) 97,87 %
10.06.2020 13:44 20,1 C 21,7 C 18,9 C 74 % 1015,4 hPa 0,0 l/m 0 min 0 min 392 W/m 3,2 km/h (1 Bft) 97,87 %
10.06.2020 13:46 20,1 C 22,2 C 18,9 C 74 % 1015,4 hPa 0,0 l/m 0 min 0 min 397 W/m 6,4 km/h (2 Bft) 97,87 %
10.06.2020 13:48 20,1 C 21,7 C 18,9 C 73 % 1015,4 hPa 0,0 l/m 0 min 0 min 408 W/m 6,4 km/h (2 Bft) 97,87 %
10.06.2020 13:50 20,1 C 22,2 C 18,9 C 74 % 1015,3 hPa 0,0 l/m 0 min 0 min 415 W/m 3,2 km/h (1 Bft) 97,87 %
10.06.2020 13:52 20,1 C 22,2 C 18,3 C 73 % 1015,4 hPa 0,0 l/m 0 min 0 min 414 W/m 6,4 km/h (2 Bft) 91,30 %
10.06.2020 13:54 20,2 C 22,2 C 18,9 C 75 % 1015,4 hPa 0,0 l/m 0 min 0 min 408 W/m 3,2 km/h (1 Bft) 95,74 %
10.06.2020 13:56 20,2 C 22,2 C 18,9 C 73 % 1015,4 hPa 0,0 l/m 0 min 0 min 402 W/m 3,2 km/h (1 Bft) 97,87 %
10.06.2020 13:58 20,2 C 22,2 C 18,9 C 74 % 1015,4 hPa 0,0 l/m 0 min 0 min 408 W/m 9,7 km/h (2 Bft) 97,87 %
10.06.2020 14:00 20,2 C 22,2 C 18,9 C 73 % 1015,4 hPa 0,0 l/m 0 min 0 min 408 W/m 6,4 km/h (2 Bft) 93,62 %
10.06.2020 14:02 20,2 C 22,2 C 18,9 C 74 % 1015,4 hPa 0,0 l/m 0 min 0 min 398 W/m 6,4 km/h (2 Bft) 97,87 %
10.06.2020 14:04 20,3 C 22,2 C 18,9 C 74 % 1015,4 hPa 0,0 l/m 0 min 0 min 376 W/m 6,4 km/h (2 Bft) 97,83 %
10.06.2020 14:06 20,3 C 22,2 C 18,9 C 74 % 1015,4 hPa 0,0 l/m 0 min 0 min 373 W/m 6,4 km/h (2 Bft) 95,74 %
10.06.2020 14:08 20,3 C 21,7 C 18,3 C 74 % 1015,4 hPa 0,0 l/m 0 min 0 min 346 W/m 3,2 km/h (1 Bft) 97,87 %
10.06.2020 14:10 20,3 C 21,7 C 18,3 C 73 % 1015,4 hPa 0,0 l/m 0 min 0 min 315 W/m 3,2 km/h (1 Bft) 94,44 %
10.06.2020 14:12 20,3 C 21,1 C 18,3 C 74 % 1015,4 hPa 0,0 l/m 0 min 0 min 321 W/m 6,4 km/h (2 Bft) 97,87 %
10.06.2020 14:14 20,3 C 21,1 C 18,3 C 73 % 1015,4 hPa 0,0 l/m 0 min 0 min 330 W/m 6,4 km/h (2 Bft) 97,87 %
10.06.2020 14:16 20,3 C 21,1 C 18,3 C 73 % 1015,4 hPa 0,0 l/m 0 min 0 min 337 W/m 3,2 km/h (1 Bft) 97,87 %
10.06.2020 14:18 20,3 C 21,1 C 18,3 C 73 % 1015,4 hPa 0,0 l/m 0 min 0 min 337 W/m 3,2 km/h (1 Bft) 97,87 %
10.06.2020 14:20 20,2 C 21,1 C 18,3 C 73 % 1015,3 hPa 0,0 l/m 0 min 0 min 324 W/m 3,2 km/h (1 Bft) 97,83 %
10.06.2020 14:22 20,2 C 21,1 C 18,3 C 73 % 1015,3 hPa 0,0 l/m 0 min 0 min 309 W/m 3,2 km/h (1 Bft) 97,87 %
10.06.2020 14:24 20,2 C 20,6 C 18,3 C 73 % 1015,3 hPa 0,0 l/m 0 min 0 min 296 W/m 3,2 km/h (1 Bft) 95,74 %
10.06.2020 14:26 20,2 C 21,1 C 18,3 C 74 % 1015,3 hPa 0,0 l/m 0 min 0 min 280 W/m 3,2 km/h (1 Bft) 97,87 %
10.06.2020 14:28 20,1 C 20,6 C 18,3 C 73 % 1015,3 hPa 0,0 l/m 0 min 0 min 263 W/m 0,0 km/h (0 Bft) 97,87 %
10.06.2020 14:30 20,1 C 20,6 C 18,3 C 73 % 1015,3 hPa 0,0 l/m 0 min 0 min 255 W/m 3,2 km/h (1 Bft) 95,74 %
10.06.2020 14:32 20,1 C 20,6 C 18,3 C 73 % 1015,2 hPa 0,0 l/m 0 min 0 min 261 W/m 3,2 km/h (1 Bft) 95,74 %
10.06.2020 14:34 20,1 C 20,6 C 18,3 C 73 % 1015,2 hPa 0,0 l/m 0 min 0 min 276 W/m 0,0 km/h (0 Bft) 97,87 %
10.06.2020 14:36 20,0 C 20,0 C 17,8 C 72 % 1015,2 hPa 0,0 l/m 0 min 0 min 283 W/m 3,2 km/h (1 Bft) 97,87 %
10.06.2020 14:38 19,9 C 20,0 C 17,8 C 72 % 1015,2 hPa 0,0 l/m 0 min 0 min 277 W/m 6,4 km/h (2 Bft) 95,74 %
10.06.2020 14:40 19,9 C 20,6 C 17,8 C 73 % 1015,3 hPa 0,0 l/m 0 min 0 min 268 W/m 3,2 km/h (1 Bft) 98,00 %
10.06.2020 14:42 19,9 C 20,6 C 17,8 C 73 % 1015,2 hPa 0,0 l/m 0 min 0 min 262 W/m 3,2 km/h (1 Bft) 97,83 %
10.06.2020 14:44 19,9 C 20,6 C 17,8 C 73 % 1015,2 hPa 0,0 l/m 0 min 0 min 267 W/m 3,2 km/h (1 Bft) 100,00 %
10.06.2020 14:46 19,9 C 20,6 C 17,8 C 74 % 1015,2 hPa 0,0 l/m 0 min 0 min 255 W/m 6,4 km/h (2 Bft) 97,87 %
10.06.2020 14:48 19,9 C 20,0 C 17,8 C 74 % 1015,1 hPa 0,0 l/m 0 min 0 min 252 W/m 6,4 km/h (2 Bft) 97,87 %
10.06.2020 14:50 19,8 C 20,6 C 17,8 C 74 % 1015,2 hPa 0,0 l/m 0 min 0 min 244 W/m 6,4 km/h (2 Bft) 95,74 %
10.06.2020 14:52 19,8 C 20,0 C 17,8 C 73 % 1015,1 hPa 0,0 l/m 0 min 0 min 228 W/m 6,4 km/h (2 Bft) 95,74 %
10.06.2020 14:54 19,8 C 20,0 C 17,8 C 73 % 1015,2 hPa 0,0 l/m 0 min 0 min 236 W/m 3,2 km/h (1 Bft) 97,83 %
10.06.2020 14:56 19,8 C 20,0 C 17,8 C 74 % 1015,2 hPa 0,0 l/m 0 min 0 min 251 W/m 6,4 km/h (2 Bft) 95,74 %
10.06.2020 14:58 19,8 C 20,0 C 17,8 C 75 % 1015,1 hPa 0,0 l/m 0 min 0 min 259 W/m 3,2 km/h (1 Bft) 97,87 %
10.06.2020 15:00 19,8 C 20,6 C 17,8 C 75 % 1015,1 hPa 0,0 l/m 0 min 0 min 249 W/m 3,2 km/h (1 Bft) 97,87 %
10.06.2020 15:02 19,8 C 20,0 C 17,8 C 75 % 1015,0 hPa 0,0 l/m 0 min 0 min 271 W/m 6,4 km/h (2 Bft) 97,87 %
10.06.2020 15:04 19,8 C 20,6 C 17,8 C 74 % 1015,0 hPa 0,0 l/m 0 min 0 min 294 W/m 3,2 km/h (1 Bft) 97,87 %
10.06.2020 15:06 19,8 C 20,6 C 18,3 C 75 % 1015,0 hPa 0,0 l/m 0 min 0 min 300 W/m 3,2 km/h (1 Bft) 93,62 %
10.06.2020 15:08 19,8 C 21,1 C 18,3 C 75 % 1015,0 hPa 0,0 l/m 0 min 0 min 309 W/m 0,0 km/h (0 Bft) 95,74 %
10.06.2020 15:10 19,8 C 21,1 C 18,3 C 76 % 1014,9 hPa 0,0 l/m 0 min 0 min 320 W/m 0,0 km/h (0 Bft) 97,83 %
10.06.2020 15:12 19,8 C 21,7 C 18,3 C 76 % 1014,9 hPa 0,0 l/m 0 min 0 min 359 W/m 0,0 km/h (0 Bft) 97,87 %
10.06.2020 15:14 19,8 C 22,2 C 18,3 C 76 % 1014,9 hPa 0,0 l/m 0 min 0 min 372 W/m 0,0 km/h (0 Bft) 97,87 %
10.06.2020 15:16 19,8 C 22,2 C 18,3 C 76 % 1015,0 hPa 0,0 l/m 0 min 0 min 383 W/m 3,2 km/h (1 Bft) 93,62 %
10.06.2020 15:18 19,9 C 22,2 C 18,3 C 76 % 1014,9 hPa 0,0 l/m 0 min 0 min 374 W/m 3,2 km/h (1 Bft) 97,87 %
10.06.2020 15:20 19,9 C 22,2 C 18,3 C 76 % 1014,9 hPa 0,0 l/m 0 min 0 min 387 W/m 3,2 km/h (1 Bft) 97,87 %
10.06.2020 15:22 19,9 C 22,8 C 18,3 C 74 % 1014,9 hPa 0,0 l/m 0 min 0 min 352 W/m 6,4 km/h (2 Bft) 97,83 %
10.06.2020 15:24 19,9 C 22,8 C 18,3 C 74 % 1014,9 hPa 0,0 l/m 2 min 0 min 461 W/m 9,7 km/h (2 Bft) 97,87 %
10.06.2020 15:26 20,0 C 22,8 C 18,9 C 74 % 1014,9 hPa 0,0 l/m 2 min 0 min 484 W/m 3,2 km/h (1 Bft) 97,87 %
10.06.2020 15:28 20,1 C 23,3 C 18,9 C 74 % 1014,9 hPa 0,0 l/m 2 min 0 min 512 W/m 3,2 km/h (1 Bft) 97,87 %
10.06.2020 15:30 20,2 C 23,3 C 18,9 C 75 % 1014,9 hPa 0,0 l/m 2 min 0 min 503 W/m 3,2 km/h (1 Bft) 97,87 %
10.06.2020 15:32 20,3 C 23,9 C 18,9 C 76 % 1014,9 hPa 0,0 l/m 2 min 0 min 527 W/m 0,0 km/h (0 Bft) 97,87 %
10.06.2020 15:34 20,3 C 23,9 C 19,4 C 73 % 1014,8 hPa 0,0 l/m 2 min 0 min 570 W/m 3,2 km/h (1 Bft) 97,83 %
10.06.2020 15:36 20,4 C 24,4 C 19,4 C 73 % 1014,8 hPa 0,0 l/m 2 min 0 min 626 W/m 9,7 km/h (2 Bft) 97,87 %
10.06.2020 15:38 20,5 C 25,0 C 19,4 C 74 % 1014,8 hPa 0,0 l/m 2 min 0 min 594 W/m 3,2 km/h (1 Bft) 95,74 %
10.06.2020 15:40 20,6 C 25,0 C 19,4 C 73 % 1014,8 hPa 0,0 l/m 2 min 0 min 570 W/m 6,4 km/h (2 Bft) 100,00 %
10.06.2020 15:42 20,7 C 25,0 C 19,4 C 72 % 1014,7 hPa 0,0 l/m 2 min 0 min 556 W/m 3,2 km/h (1 Bft) 95,74 %
10.06.2020 15:44 20,8 C 23,9 C 19,4 C 73 % 1014,8 hPa 0,0 l/m 2 min 0 min 518 W/m 6,4 km/h (2 Bft) 97,87 %
10.06.2020 15:46 20,9 C 22,8 C 19,4 C 72 % 1014,8 hPa 0,0 l/m 0 min 0 min 326 W/m 3,2 km/h (1 Bft) 97,87 %
10.06.2020 15:48 20,9 C 22,2 C 18,9 C 72 % 1014,7 hPa 0,0 l/m 0 min 0 min 265 W/m 0,0 km/h (0 Bft) 97,83 %
10.06.2020 15:50 20,9 C 21,7 C 18,9 C 71 % 1014,7 hPa 0,0 l/m 0 min 0 min 226 W/m 3,2 km/h (1 Bft) 97,87 %
10.06.2020 15:52 20,9 C 21,1 C 18,3 C 69 % 1014,7 hPa 0,0 l/m 0 min 0 min 206 W/m 0,0 km/h (0 Bft) 100,00 %
10.06.2020 15:54 20,9 C 20,6 C 18,3 C 68 % 1014,7 hPa 0,0 l/m 0 min 0 min 195 W/m 3,2 km/h (1 Bft) 100,00 %
10.06.2020 15:56 20,9 C 20,0 C 18,3 C 68 % 1014,7 hPa 0,0 l/m 0 min 0 min 186 W/m 6,4 km/h (2 Bft) 100,00 %
10.06.2020 15:58 20,9 C 20,6 C 18,3 C 68 % 1014,7 hPa 0,0 l/m 0 min 0 min 180 W/m 0,0 km/h (0 Bft) 100,00 %
10.06.2020 16:00 20,9 C 20,6 C 18,3 C 69 % 1014,7 hPa 0,0 l/m 0 min 0 min 180 W/m 0,0 km/h (0 Bft) 95,65 %
10.06.2020 16:02 20,8 C 20,6 C 18,3 C 68 % 1014,7 hPa 0,0 l/m 0 min 0 min 203 W/m 0,0 km/h (0 Bft) 97,87 %
10.06.2020 16:04 20,8 C 20,6 C 18,3 C 69 % 1014,6 hPa 0,0 l/m 0 min 0 min 216 W/m 3,2 km/h (1 Bft) 95,74 %
10.06.2020 16:06 20,8 C 20,6 C 18,3 C 69 % 1014,7 hPa 0,0 l/m 0 min 0 min 214 W/m 0,0 km/h (0 Bft) 97,87 %
10.06.2020 16:08 20,8 C 20,6 C 18,3 C 70 % 1014,7 hPa 0,0 l/m 0 min 0 min 214 W/m 6,4 km/h (2 Bft) 97,87 %
10.06.2020 16:10 20,7 C 20,6 C 18,3 C 68 % 1014,7 hPa 0,0 l/m 0 min 0 min 221 W/m 3,2 km/h (1 Bft) 97,87 %
10.06.2020 16:12 20,7 C 20,6 C 18,3 C 68 % 1014,7 hPa 0,0 l/m 0 min 0 min 230 W/m 0,0 km/h (0 Bft) 97,83 %
10.06.2020 16:14 20,6 C 20,0 C 18,3 C 68 % 1014,7 hPa 0,0 l/m 0 min 0 min 228 W/m 9,7 km/h (2 Bft) 97,87 %
10.06.2020 16:16 20,6 C 20,0 C 18,3 C 68 % 1014,7 hPa 0,0 l/m 0 min 0 min 214 W/m 3,2 km/h (1 Bft) 97,87 %
10.06.2020 16:18 20,6 C 20,0 C 18,3 C 69 % 1014,7 hPa 0,0 l/m 0 min 0 min 188 W/m 6,4 km/h (2 Bft) 97,87 %
10.06.2020 16:20 20,6 C 20,0 C 17,8 C 69 % 1014,7 hPa 0,0 l/m 0 min 0 min 170 W/m 3,2 km/h (1 Bft) 97,87 %
10.06.2020 16:22 20,5 C 19,4 C 17,8 C 69 % 1014,7 hPa 0,0 l/m 0 min 0 min 162 W/m 3,2 km/h (1 Bft) 98,25 %
10.06.2020 16:24 20,4 C 19,4 C 17,8 C 70 % 1014,7 hPa 0,0 l/m 0 min 0 min 161 W/m 6,4 km/h (2 Bft) 91,49 %
10.06.2020 16:26 20,4 C 19,4 C 17,8 C 70 % 1014,7 hPa 0,0 l/m 0 min 0 min 162 W/m 6,4 km/h (2 Bft) 95,74 %
10.06.2020 16:28 20,3 C 19,4 C 17,8 C 70 % 1014,6 hPa 0,0 l/m 0 min 0 min 167 W/m 6,4 km/h (2 Bft) 95,65 %
10.06.2020 16:30 20,3 C 19,4 C 17,8 C 71 % 1014,6 hPa 0,0 l/m 0 min 0 min 173 W/m 3,2 km/h (1 Bft) 95,74 %
10.06.2020 16:32 20,3 C 19,4 C 17,8 C 71 % 1014,6 hPa 0,0 l/m 0 min 0 min 171 W/m 3,2 km/h (1 Bft) 95,74 %
10.06.2020 16:34 20,2 C 18,9 C 17,8 C 71 % 1014,6 hPa 0,0 l/m 0 min 0 min 155 W/m 6,4 km/h (2 Bft) 95,74 %
10.06.2020 16:36 20,2 C 18,9 C 17,8 C 71 % 1014,6 hPa 0,0 l/m 0 min 0 min 136 W/m 0,0 km/h (0 Bft) 95,74 %
10.06.2020 16:38 20,2 C 18,9 C 17,8 C 72 % 1014,6 hPa 0,0 l/m 0 min 0 min 125 W/m 3,2 km/h (1 Bft) 95,74 %
10.06.2020 16:40 20,1 C 18,9 C 17,2 C 73 % 1014,5 hPa 0,0 l/m 0 min 0 min 121 W/m 0,0 km/h (0 Bft) 93,75 %
10.06.2020 16:42 20,1 C 18,9 C 17,2 C 73 % 1014,5 hPa 0,0 l/m 0 min 0 min 120 W/m 3,2 km/h (1 Bft) 93,62 %
10.06.2020 16:44 20,0 C 18,9 C 17,2 C 73 % 1014,5 hPa 0,0 l/m 0 min 0 min 116 W/m 3,2 km/h (1 Bft) 95,65 %
10.06.2020 16:46 19,9 C 18,9 C 17,2 C 73 % 1014,5 hPa 0,0 l/m 0 min 0 min 110 W/m 0,0 km/h (0 Bft) 95,74 %
10.06.2020 16:48 19,9 C 18,3 C 17,2 C 73 % 1014,5 hPa 0,0 l/m 0 min 0 min 106 W/m 6,4 km/h (2 Bft) 95,74 %
10.06.2020 16:50 19,8 C 18,3 C 17,2 C 73 % 1014,5 hPa 0,0 l/m 0 min 0 min 107 W/m 3,2 km/h (1 Bft) 95,74 %
10.06.2020 16:52 19,8 C 18,3 C 17,2 C 73 % 1014,5 hPa 0,0 l/m 0 min 0 min 112 W/m 3,2 km/h (1 Bft) 97,87 %
10.06.2020 16:54 19,8 C 18,3 C 17,2 C 73 % 1014,5 hPa 0,0 l/m 0 min 0 min 120 W/m 0,0 km/h (0 Bft) 95,65 %
10.06.2020 16:56 19,7 C 18,3 C 17,2 C 74 % 1014,4 hPa 0,0 l/m 0 min 0 min 125 W/m 3,2 km/h (1 Bft) 95,74 %
10.06.2020 16:58 19,7 C 18,3 C 17,2 C 74 % 1014,4 hPa 0,0 l/m 0 min 0 min 124 W/m 3,2 km/h (1 Bft) 95,74 %
10.06.2020 17:00 19,6 C 18,9 C 17,2 C 75 % 1014,4 hPa 0,0 l/m 0 min 0 min 120 W/m 3,2 km/h (1 Bft) 97,87 %
10.06.2020 17:02 19,6 C 18,3 C 17,2 C 74 % 1014,4 hPa 0,0 l/m 0 min 0 min 115 W/m 6,4 km/h (2 Bft) 97,87 %
10.06.2020 17:04 19,5 C 18,3 C 17,2 C 74 % 1014,4 hPa 0,0 l/m 0 min 0 min 111 W/m 0,0 km/h (0 Bft) 97,87 %
10.06.2020 17:06 19,4 C 18,3 C 17,2 C 75 % 1014,4 hPa 0,0 l/m 0 min 0 min 111 W/m 3,2 km/h (1 Bft) 95,65 %
10.06.2020 17:08 19,4 C 18,3 C 17,2 C 75 % 1014,4 hPa 0,0 l/m 0 min 0 min 109 W/m 0,0 km/h (0 Bft) 97,87 %
10.06.2020 17:10 19,4 C 18,3 C 17,2 C 75 % 1014,4 hPa 0,0 l/m 0 min 0 min 111 W/m 3,2 km/h (1 Bft) 100,00 %
10.06.2020 17:12 19,3 C 18,3 C 17,2 C 75 % 1014,4 hPa 0,0 l/m 0 min 0 min 113 W/m 3,2 km/h (1 Bft) 100,00 %
10.06.2020 17:14 19,3 C 18,3 C 17,2 C 75 % 1014,4 hPa 0,0 l/m 0 min 0 min 119 W/m 3,2 km/h (1 Bft) 100,00 %
10.06.2020 17:16 19,3 C 18,9 C 17,2 C 76 % 1014,3 hPa 0,0 l/m 0 min 0 min 125 W/m 0,0 km/h (0 Bft) 97,87 %
10.06.2020 17:18 19,3 C 18,9 C 17,2 C 76 % 1014,3 hPa 0,0 l/m 0 min 0 min 130 W/m 3,2 km/h (1 Bft) 100,00 %
10.06.2020 17:20 19,2 C 18,3 C 17,2 C 76 % 1014,4 hPa 0,0 l/m 0 min 0 min 132 W/m 3,2 km/h (1 Bft) 100,00 %
10.06.2020 17:22 19,2 C 18,9 C 17,2 C 76 % 1014,3 hPa 0,0 l/m 0 min 0 min 131 W/m 0,0 km/h (0 Bft) 100,00 %
10.06.2020 17:24 19,2 C 18,9 C 17,2 C 76 % 1014,3 hPa 0,0 l/m 0 min 0 min 126 W/m 0,0 km/h (0 Bft) 97,87 %
10.06.2020 17:26 19,1 C 18,3 C 17,2 C 76 % 1014,3 hPa 0,0 l/m 0 min 0 min 119 W/m 6,4 km/h (2 Bft) 100,00 %
10.06.2020 17:28 19,1 C 18,3 C 17,2 C 76 % 1014,3 hPa 0,0 l/m 0 min 0 min 114 W/m 0,0 km/h (0 Bft) 100,00 %
10.06.2020 17:30 19,1 C 18,9 C 17,2 C 76 % 1014,3 hPa 0,0 l/m 0 min 0 min 113 W/m 0,0 km/h (0 Bft) 100,00 %
10.06.2020 17:32 19,1 C 18,3 C 17,2 C 77 % 1014,3 hPa 0,0 l/m 0 min 0 min 114 W/m 0,0 km/h (0 Bft) 100,00 %
10.06.2020 17:34 19,1 C 18,3 C 17,2 C 77 % 1014,3 hPa 0,0 l/m 0 min 0 min 110 W/m 0,0 km/h (0 Bft) 100,00 %
10.06.2020 17:36 19,1 C 18,9 C 17,2 C 77 % 1014,3 hPa 0,0 l/m 0 min 0 min 106 W/m 0,0 km/h (0 Bft) 100,00 %
10.06.2020 17:38 19,1 C 18,3 C 17,2 C 77 % 1014,3 hPa 0,0 l/m 0 min 0 min 105 W/m 0,0 km/h (0 Bft) 97,87 %
10.06.2020 17:40 19,1 C 18,3 C 17,2 C 77 % 1014,3 hPa 0,0 l/m 0 min 0 min 104 W/m 0,0 km/h (0 Bft) 100,00 %
10.06.2020 17:42 19,0 C 18,3 C 17,2 C 77 % 1014,3 hPa 0,0 l/m 0 min 0 min 102 W/m 0,0 km/h (0 Bft) 100,00 %
10.06.2020 17:44 19,0 C 18,3 C 17,2 C 77 % 1014,2 hPa 0,0 l/m 0 min 0 min 102 W/m 0,0 km/h (0 Bft) 97,83 %
10.06.2020 17:46 18,9 C 18,3 C 16,7 C 77 % 1014,2 hPa 0,0 l/m 0 min 0 min 102 W/m 0,0 km/h (0 Bft) 100,00 %
10.06.2020 17:48 18,9 C 18,3 C 16,7 C 77 % 1014,2 hPa 0,0 l/m 0 min 0 min 93 W/m 3,2 km/h (1 Bft) 100,00 %
10.06.2020 17:50 18,9 C 18,3 C 16,7 C 77 % 1014,2 hPa 0,0 l/m 0 min 0 min 96 W/m 3,2 km/h (1 Bft) 100,00 %
10.06.2020 17:52 18,9 C 18,3 C 16,7 C 77 % 1014,1 hPa 0,0 l/m 0 min 0 min 91 W/m 3,2 km/h (1 Bft) 100,00 %
10.06.2020 17:54 18,9 C 18,3 C 16,7 C 77 % 1014,1 hPa 0,0 l/m 0 min 0 min 92 W/m 3,2 km/h (1 Bft) 97,87 %
10.06.2020 17:56 18,8 C 18,3 C 16,7 C 77 % 1014,1 hPa 0,0 l/m 0 min 0 min 89 W/m 0,0 km/h (0 Bft) 95,65 %
10.06.2020 17:58 18,8 C 18,3 C 16,7 C 77 % 1014,1 hPa 0,0 l/m 0 min 0 min 90 W/m 0,0 km/h (0 Bft) 100,00 %
10.06.2020 18:00 18,8 C 18,3 C 16,7 C 77 % 1014,1 hPa 0,0 l/m 0 min 0 min 91 W/m 0,0 km/h (0 Bft) 97,87 %
10.06.2020 18:02 18,8 C 18,3 C 16,7 C 78 % 1014,1 hPa 0,0 l/m 0 min 0 min 90 W/m 0,0 km/h (0 Bft) 95,74 %
10.06.2020 18:04 18,8 C 18,3 C 16,7 C 78 % 1014,1 hPa 0,0 l/m 0 min 0 min 90 W/m 3,2 km/h (1 Bft) 97,87 %
10.06.2020 18:08 18,7 C 18,3 C 16,7 C 78 % 1014,1 hPa 0,0 l/m 0 min 0 min 90 W/m 0,0 km/h (0 Bft) 100,00 %
10.06.2020 18:10 18,7 C 18,3 C 16,7 C 78 % 1014,1 hPa 0,0 l/m 0 min 0 min 93 W/m 0,0 km/h (0 Bft) 95,74 %
10.06.2020 18:12 18,7 C 18,3 C 16,7 C 78 % 1014,1 hPa 0,0 l/m 0 min 0 min 91 W/m 0,0 km/h (0 Bft) 97,87 %
10.06.2020 18:14 18,7 C 18,3 C 16,7 C 78 % 1014,1 hPa 0,0 l/m 0 min 0 min 87 W/m 0,0 km/h (0 Bft) 95,74 %
10.06.2020 18:16 18,7 C 18,3 C 16,7 C 78 % 1014,1 hPa 0,0 l/m 0 min 0 min 86 W/m 0,0 km/h (0 Bft) 97,87 %
10.06.2020 18:18 18,7 C 18,3 C 16,7 C 78 % 1014,0 hPa 0,0 l/m 0 min 0 min 88 W/m 0,0 km/h (0 Bft) 97,87 %
10.06.2020 18:20 18,7 C 18,3 C 16,7 C 79 % 1014,0 hPa 0,0 l/m 0 min 0 min 88 W/m 0,0 km/h (0 Bft) 97,83 %
10.06.2020 18:22 18,7 C 18,3 C 16,7 C 79 % 1014,0 hPa 0,0 l/m 0 min 0 min 88 W/m 0,0 km/h (0 Bft) 95,74 %
10.06.2020 18:24 18,7 C 18,3 C 16,7 C 79 % 1014,0 hPa 0,0 l/m 0 min 0 min 85 W/m 0,0 km/h (0 Bft) 96,43 %
10.06.2020 18:26 18,7 C 18,3 C 16,7 C 79 % 1014,0 hPa 0,0 l/m 0 min 0 min 83 W/m 0,0 km/h (0 Bft) 95,65 %
10.06.2020 18:28 18,7 C 18,3 C 16,7 C 79 % 1014,0 hPa 0,0 l/m 0 min 0 min 78 W/m 0,0 km/h (0 Bft) 95,74 %
10.06.2020 18:30 18,6 C 17,8 C 16,7 C 78 % 1014,0 hPa 0,0 l/m 0 min 0 min 74 W/m 0,0 km/h (0 Bft) 97,87 %
10.06.2020 18:32 18,6 C 17,8 C 16,7 C 78 % 1014,0 hPa 0,0 l/m 0 min 0 min 70 W/m 0,0 km/h (0 Bft) 97,92 %
10.06.2020 18:34 18,6 C 17,8 C 16,7 C 78 % 1014,0 hPa 0,0 l/m 0 min 0 min 69 W/m 0,0 km/h (0 Bft) 97,87 %
10.06.2020 18:36 18,6 C 17,8 C 16,7 C 78 % 1014,0 hPa 0,0 l/m 0 min 0 min 68 W/m 0,0 km/h (0 Bft) 97,83 %
10.06.2020 18:38 18,6 C 17,8 C 16,7 C 78 % 1014,0 hPa 0,0 l/m 0 min 0 min 65 W/m 0,0 km/h (0 Bft) 97,87 %
10.06.2020 18:40 18,6 C 17,8 C 16,7 C 78 % 1013,9 hPa 0,0 l/m 0 min 0 min 64 W/m 6,4 km/h (2 Bft) 97,96 %
10.06.2020 18:42 18,6 C 17,8 C 16,7 C 78 % 1013,9 hPa 0,0 l/m 0 min 0 min 63 W/m 0,0 km/h (0 Bft) 100,00 %
10.06.2020 18:44 18,5 C 17,8 C 16,7 C 78 % 1013,9 hPa 0,0 l/m 0 min 0 min 64 W/m 0,0 km/h (0 Bft) 97,87 %
10.06.2020 18:46 18,5 C 17,8 C 16,7 C 78 % 1013,9 hPa 0,0 l/m 0 min 0 min 62 W/m 3,2 km/h (1 Bft) 97,87 %
10.06.2020 18:48 18,5 C 17,2 C 16,7 C 78 % 1013,9 hPa 0,0 l/m 0 min 0 min 58 W/m 3,2 km/h (1 Bft) 97,87 %
10.06.2020 18:50 18,5 C 17,2 C 16,7 C 78 % 1013,9 hPa 0,0 l/m 0 min 0 min 55 W/m 0,0 km/h (0 Bft) 97,87 %
10.06.2020 18:52 18,4 C 17,2 C 16,7 C 78 % 1013,9 hPa 0,0 l/m 0 min 0 min 54 W/m 0,0 km/h (0 Bft) 97,83 %
10.06.2020 18:54 18,4 C 17,2 C 16,7 C 78 % 1013,9 hPa 0,0 l/m 0 min 0 min 54 W/m 3,2 km/h (1 Bft) 95,74 %
10.06.2020 18:56 18,4 C 17,2 C 16,7 C 79 % 1013,9 hPa 0,0 l/m 0 min 0 min 54 W/m 0,0 km/h (0 Bft) 97,87 %
10.06.2020 18:58 18,4 C 17,2 C 16,7 C 79 % 1013,9 hPa 0,0 l/m 0 min 0 min 54 W/m 0,0 km/h (0 Bft) 97,87 %
10.06.2020 19:00 18,4 C 17,2 C 16,7 C 79 % 1013,9 hPa 0,0 l/m 0 min 0 min 56 W/m 0,0 km/h (0 Bft) 100,00 %
10.06.2020 19:02 18,4 C 17,2 C 16,7 C 79 % 1013,9 hPa 0,0 l/m 0 min 0 min 57 W/m 3,2 km/h (1 Bft) 95,65 %
10.06.2020 19:04 18,4 C 17,2 C 16,7 C 79 % 1013,8 hPa 0,0 l/m 0 min 0 min 59 W/m 0,0 km/h (0 Bft) 95,74 %
10.06.2020 19:06 18,4 C 17,2 C 16,7 C 79 % 1013,8 hPa 0,0 l/m 0 min 0 min 60 W/m 0,0 km/h (0 Bft) 97,87 %
10.06.2020 19:08 18,3 C 17,2 C 16,7 C 79 % 1013,8 hPa 0,0 l/m 0 min 0 min 59 W/m 0,0 km/h (0 Bft) 97,87 %
10.06.2020 19:10 18,3 C 17,2 C 16,7 C 79 % 1013,8 hPa 0,0 l/m 0 min 0 min 54 W/m 0,0 km/h (0 Bft) 97,14 %
10.06.2020 19:12 18,3 C 17,2 C 16,7 C 79 % 1013,7 hPa 0,0 l/m 0 min 0 min 49 W/m 0,0 km/h (0 Bft) 97,87 %
10.06.2020 19:14 18,3 C 17,2 C 16,7 C 79 % 1013,7 hPa 0,0 l/m 0 min 0 min 45 W/m 0,0 km/h (0 Bft) 95,74 %
10.06.2020 19:16 18,3 C 17,2 C 16,7 C 79 % 1013,7 hPa 0,0 l/m 0 min 0 min 41 W/m 0,0 km/h (0 Bft) 95,74 %
10.06.2020 19:18 18,3 C 17,2 C 16,1 C 79 % 1013,7 hPa 0,0 l/m 0 min 0 min 39 W/m 0,0 km/h (0 Bft) 95,65 %
10.06.2020 19:20 18,2 C 17,2 C 16,1 C 79 % 1013,8 hPa 0,0 l/m 0 min 0 min 37 W/m 3,2 km/h (1 Bft) 95,74 %
10.06.2020 19:22 18,2 C 17,2 C 16,1 C 79 % 1013,7 hPa 0,0 l/m 0 min 0 min 37 W/m 3,2 km/h (1 Bft) 95,74 %
10.06.2020 19:24 18,2 C 17,2 C 16,1 C 79 % 1013,8 hPa 0,0 l/m 0 min 0 min 38 W/m 0,0 km/h (0 Bft) 95,74 %
10.06.2020 19:26 18,2 C 17,2 C 16,1 C 79 % 1013,8 hPa 0,0 l/m 0 min 0 min 40 W/m 0,0 km/h (0 Bft) 95,74 %
10.06.2020 19:28 18,2 C 17,2 C 16,1 C 79 % 1013,8 hPa 0,0 l/m 0 min 0 min 44 W/m 3,2 km/h (1 Bft) 95,74 %
10.06.2020 19:30 18,2 C 17,2 C 16,1 C 79 % 1013,9 hPa 0,0 l/m 0 min 0 min 46 W/m 3,2 km/h (1 Bft) 95,65 %
10.06.2020 19:32 18,1 C 17,2 C 16,1 C 79 % 1013,8 hPa 0,0 l/m 0 min 0 min 47 W/m 0,0 km/h (0 Bft) 95,74 %
10.06.2020 19:34 18,1 C 17,2 C 16,1 C 79 % 1013,7 hPa 0,0 l/m 0 min 0 min 46 W/m 0,0 km/h (0 Bft) 95,74 %
10.06.2020 19:36 18,1 C 17,2 C 16,1 C 79 % 1013,8 hPa 0,0 l/m 0 min 0 min 44 W/m 0,0 km/h (0 Bft) 95,74 %
10.06.2020 19:38 18,1 C 17,2 C 16,1 C 79 % 1013,8 hPa 0,0 l/m 0 min 0 min 45 W/m 0,0 km/h (0 Bft) 95,74 %
10.06.2020 19:40 18,1 C 17,2 C 16,1 C 79 % 1013,8 hPa 0,0 l/m 0 min 0 min 48 W/m 0,0 km/h (0 Bft) 94,44 %
10.06.2020 19:42 18,1 C 17,2 C 16,1 C 79 % 1013,8 hPa 0,0 l/m 0 min 0 min 52 W/m 0,0 km/h (0 Bft) 93,62 %
10.06.2020 19:44 18,1 C 17,2 C 16,1 C 79 % 1013,8 hPa 0,0 l/m 0 min 0 min 56 W/m 0,0 km/h (0 Bft) 95,74 %
10.06.2020 19:46 18,0 C 17,2 C 16,1 C 79 % 1013,8 hPa 0,0 l/m 0 min 0 min 60 W/m 0,0 km/h (0 Bft) 95,74 %
10.06.2020 19:48 18,0 C 17,2 C 16,1 C 79 % 1013,8 hPa 0,0 l/m 0 min 0 min 62 W/m 0,0 km/h (0 Bft) 95,65 %
10.06.2020 19:50 18,0 C 17,2 C 16,7 C 79 % 1013,8 hPa 0,0 l/m 0 min 0 min 63 W/m 0,0 km/h (0 Bft) 93,62 %
10.06.2020 19:52 18,0 C 17,8 C 16,7 C 79 % 1013,7 hPa 0,0 l/m 0 min 0 min 63 W/m 0,0 km/h (0 Bft) 95,74 %
10.06.2020 19:54 18,0 C 17,8 C 16,7 C 80 % 1013,8 hPa 0,0 l/m 0 min 0 min 63 W/m 0,0 km/h (0 Bft) 93,62 %
10.06.2020 19:56 18,0 C 17,8 C 16,7 C 80 % 1013,8 hPa 0,0 l/m 0 min 0 min 63 W/m 0,0 km/h (0 Bft) 93,62 %
10.06.2020 19:58 18,0 C 17,2 C 16,7 C 80 % 1013,8 hPa 0,0 l/m 0 min 0 min 63 W/m 0,0 km/h (0 Bft) 97,87 %
10.06.2020 20:00 18,0 C 17,2 C 16,7 C 80 % 1013,8 hPa 0,0 l/m 0 min 0 min 62 W/m 0,0 km/h (0 Bft) 97,83 %
10.06.2020 20:02 18,0 C 17,2 C 16,7 C 80 % 1013,7 hPa 0,0 l/m 0 min 0 min 62 W/m 0,0 km/h (0 Bft) 95,74 %
10.06.2020 20:04 18,0 C 17,2 C 16,1 C 80 % 1013,7 hPa 0,0 l/m 0 min 0 min 62 W/m 3,2 km/h (1 Bft) 97,87 %
10.06.2020 20:06 17,9 C 17,2 C 16,1 C 80 % 1013,7 hPa 0,0 l/m 0 min 0 min 60 W/m 0,0 km/h (0 Bft) 95,74 %
10.06.2020 20:08 17,9 C 17,2 C 16,1 C 80 % 1013,7 hPa 0,0 l/m 0 min 0 min 56 W/m 0,0 km/h (0 Bft) 97,87 %
10.06.2020 20:10 17,9 C 17,2 C 16,1 C 80 % 1013,7 hPa 0,0 l/m 0 min 0 min 53 W/m 0,0 km/h (0 Bft) 97,83 %
10.06.2020 20:12 17,9 C 17,2 C 16,1 C 80 % 1013,7 hPa 0,0 l/m 0 min 0 min 51 W/m 0,0 km/h (0 Bft) 100,00 %
10.06.2020 20:14 17,9 C 17,2 C 16,1 C 80 % 1013,6 hPa 0,0 l/m 0 min 0 min 47 W/m 0,0 km/h (0 Bft) 100,00 %
10.06.2020 20:16 17,9 C 17,2 C 16,1 C 80 % 1013,7 hPa 0,0 l/m 0 min 0 min 44 W/m 0,0 km/h (0 Bft) 100,00 %
10.06.2020 20:18 17,9 C 17,2 C 16,1 C 80 % 1013,6 hPa 0,0 l/m 0 min 0 min 43 W/m 0,0 km/h (0 Bft) 100,00 %
10.06.2020 20:20 17,9 C 17,2 C 16,1 C 80 % 1013,6 hPa 0,0 l/m 0 min 0 min 42 W/m 0,0 km/h (0 Bft) 95,74 %
10.06.2020 20:22 17,9 C 17,2 C 16,1 C 80 % 1013,6 hPa 0,0 l/m 0 min 0 min 43 W/m 0,0 km/h (0 Bft) 97,83 %
10.06.2020 20:24 17,9 C 17,2 C 16,1 C 80 % 1013,6 hPa 0,0 l/m 0 min 0 min 44 W/m 0,0 km/h (0 Bft) 100,00 %
10.06.2020 20:26 17,9 C 16,7 C 16,1 C 80 % 1013,6 hPa 0,0 l/m 0 min 0 min 43 W/m 0,0 km/h (0 Bft) 100,00 %
10.06.2020 20:28 17,9 C 16,7 C 16,1 C 80 % 1013,6 hPa 0,0 l/m 0 min 0 min 41 W/m 0,0 km/h (0 Bft) 100,00 %
10.06.2020 20:30 17,9 C 16,7 C 16,1 C 80 % 1013,5 hPa 0,0 l/m 0 min 0 min 40 W/m 0,0 km/h (0 Bft) 97,56 %
10.06.2020 20:32 17,9 C 16,7 C 16,1 C 79 % 1013,5 hPa 0,0 l/m 0 min 0 min 41 W/m 0,0 km/h (0 Bft) 100,00 %
10.06.2020 20:34 17,8 C 16,7 C 16,1 C 79 % 1013,6 hPa 0,0 l/m 0 min 0 min 41 W/m 0,0 km/h (0 Bft) 100,00 %
10.06.2020 20:36 17,8 C 16,7 C 16,1 C 79 % 1013,6 hPa 0,0 l/m 0 min 0 min 39 W/m 0,0 km/h (0 Bft) 95,24 %
10.06.2020 20:38 17,8 C 16,7 C 15,6 C 80 % 1013,5 hPa 0,0 l/m 0 min 0 min 38 W/m 0,0 km/h (0 Bft) 100,00 %
10.06.2020 20:40 17,8 C 16,7 C 15,6 C 79 % 1013,5 hPa 0,0 l/m 0 min 0 min 36 W/m 0,0 km/h (0 Bft) 100,00 %
10.06.2020 20:42 17,8 C 16,7 C 15,6 C 79 % 1013,5 hPa 0,0 l/m 0 min 0 min 35 W/m 0,0 km/h (0 Bft) 100,00 %
10.06.2020 20:44 17,8 C 16,7 C 15,6 C 79 % 1013,5 hPa 0,0 l/m 0 min 0 min 35 W/m 0,0 km/h (0 Bft) 97,92 %
10.06.2020 20:46 17,8 C 16,7 C 15,6 C 79 % 1013,6 hPa 0,0 l/m 0 min 0 min 35 W/m 0,0 km/h (0 Bft) 100,00 %
10.06.2020 20:48 17,8 C 16,7 C 15,6 C 79 % 1013,6 hPa 0,0 l/m 0 min 0 min 35 W/m 0,0 km/h (0 Bft) 97,92 %
10.06.2020 20:50 17,7 C 16,1 C 15,6 C 79 % 1013,6 hPa 0,0 l/m 0 min 0 min 37 W/m 0,0 km/h (0 Bft) 97,87 %
10.06.2020 20:52 17,7 C 16,1 C 15,6 C 79 % 1013,6 hPa 0,0 l/m 0 min 0 min 38 W/m 0,0 km/h (0 Bft) 100,00 %
10.06.2020 20:54 17,7 C 16,1 C 15,6 C 79 % 1013,6 hPa 0,0 l/m 0 min 0 min 39 W/m 0,0 km/h (0 Bft) 100,00 %
10.06.2020 20:56 17,7 C 16,1 C 15,6 C 79 % 1013,6 hPa 0,0 l/m 0 min 0 min 39 W/m 0,0 km/h (0 Bft) 100,00 %
10.06.2020 20:58 17,7 C 16,1 C 15,6 C 79 % 1013,6 hPa 0,0 l/m 0 min 0 min 39 W/m 0,0 km/h (0 Bft) 97,96 %
10.06.2020 21:00 17,6 C 16,1 C 15,6 C 79 % 1013,6 hPa 0,0 l/m 0 min 0 min 39 W/m 0,0 km/h (0 Bft) 98,00 %
10.06.2020 21:02 17,6 C 16,1 C 15,6 C 79 % 1013,6 hPa 0,0 l/m 0 min 0 min 36 W/m 0,0 km/h (0 Bft) 97,92 %
10.06.2020 21:04 17,6 C 16,1 C 15,6 C 79 % 1013,6 hPa 0,0 l/m 0 min 0 min 34 W/m 0,0 km/h (0 Bft) 100,00 %
10.06.2020 21:06 17,6 C 16,1 C 15,6 C 79 % 1013,6 hPa 0,0 l/m 0 min 0 min 33 W/m 0,0 km/h (0 Bft) 97,92 %
10.06.2020 21:08 17,6 C 16,1 C 15,6 C 79 % 1013,6 hPa 0,0 l/m 0 min 0 min 32 W/m 0,0 km/h (0 Bft) 97,92 %
10.06.2020 21:10 17,6 C 16,1 C 15,6 C 79 % 1013,6 hPa 0,0 l/m 0 min 0 min 30 W/m 0,0 km/h (0 Bft) 97,92 %
10.06.2020 21:12 17,5 C 16,1 C 15,6 C 79 % 1013,6 hPa 0,0 l/m 0 min 0 min 28 W/m 0,0 km/h (0 Bft) 95,74 %
10.06.2020 21:14 17,5 C 16,1 C 15,6 C 79 % 1013,6 hPa 0,0 l/m 0 min 0 min 26 W/m 0,0 km/h (0 Bft) 97,87 %
10.06.2020 21:16 17,5 C 16,1 C 15,6 C 80 % 1013,6 hPa 0,0 l/m 0 min 0 min 24 W/m 0,0 km/h (0 Bft) 97,87 %
10.06.2020 21:18 17,4 C 16,1 C 15,6 C 80 % 1013,6 hPa 0,0 l/m 0 min 0 min 22 W/m 0,0 km/h (0 Bft) 97,87 %
10.06.2020 21:20 17,4 C 16,1 C 15,6 C 80 % 1013,6 hPa 0,0 l/m 0 min 0 min 20 W/m 0,0 km/h (0 Bft) 97,83 %
10.06.2020 21:22 17,4 C 16,1 C 15,6 C 80 % 1013,6 hPa 0,0 l/m 0 min 0 min 18 W/m 0,0 km/h (0 Bft) 98,00 %
10.06.2020 21:24 17,4 C 16,1 C 15,0 C 79 % 1013,7 hPa 0,0 l/m 0 min 0 min 16 W/m 0,0 km/h (0 Bft) 97,87 %
10.06.2020 21:26 17,4 C 16,1 C 15,0 C 79 % 1013,6 hPa 0,0 l/m 0 min 0 min 13 W/m 0,0 km/h (0 Bft) 97,87 %
10.06.2020 21:28 17,3 C 16,1 C 15,0 C 79 % 1013,6 hPa 0,0 l/m 0 min 0 min 11 W/m 0,0 km/h (0 Bft) 97,87 %
10.06.2020 21:30 17,3 C 15,6 C 15,0 C 79 % 1013,7 hPa 0,0 l/m 0 min 0 min 10 W/m 0,0 km/h (0 Bft) 100,00 %
10.06.2020 21:32 17,3 C 15,6 C 15,0 C 79 % 1013,7 hPa 0,0 l/m 0 min 0 min 7 W/m 0,0 km/h (0 Bft) 97,96 %
10.06.2020 21:34 17,3 C 15,6 C 15,0 C 79 % 1013,7 hPa 0,0 l/m 0 min 0 min 7 W/m 0,0 km/h (0 Bft) 97,87 %
10.06.2020 21:36 17,3 C 15,6 C 15,0 C 79 % 1013,7 hPa 0,0 l/m 0 min 0 min 5 W/m 0,0 km/h (0 Bft) 97,87 %
10.06.2020 21:38 17,2 C 15,6 C 15,0 C 79 % 1013,7 hPa 0,0 l/m 0 min 0 min 5 W/m 0,0 km/h (0 Bft) 95,83 %
10.06.2020 21:40 17,2 C 15,6 C 15,0 C 79 % 1013,7 hPa 0,0 l/m 0 min 0 min 2 W/m 0,0 km/h (0 Bft) 97,92 %
10.06.2020 21:42 17,2 C 15,6 C 15,0 C 79 % 1013,7 hPa 0,0 l/m 0 min 0 min 0 W/m 0,0 km/h (0 Bft) 95,83 %
10.06.2020 21:44 17,2 C 15,6 C 15,0 C 79 % 1013,7 hPa 0,0 l/m 0 min 0 min 0 W/m 0,0 km/h (0 Bft) 97,92 %
10.06.2020 21:46 17,2 C 15,6 C 15,0 C 79 % 1013,7 hPa 0,0 l/m 0 min 0 min 0 W/m 0,0 km/h (0 Bft) 97,87 %
10.06.2020 21:48 17,1 C 15,6 C 15,0 C 79 % 1013,7 hPa 0,0 l/m 0 min 0 min 0 W/m 0,0 km/h (0 Bft) 97,92 %
10.06.2020 21:50 17,1 C 15,6 C 15,0 C 79 % 1013,7 hPa 0,0 l/m 0 min 0 min 0 W/m 0,0 km/h (0 Bft) 97,22 %
10.06.2020 21:52 17,1 C 15,6 C 15,0 C 79 % 1013,7 hPa 0,0 l/m 0 min 0 min 0 W/m 0,0 km/h (0 Bft) 97,92 %
10.06.2020 21:54 17,1 C 15,6 C 15,0 C 80 % 1013,7 hPa 0,0 l/m 0 min 0 min 0 W/m 0,0 km/h (0 Bft) 97,92 %
10.06.2020 21:56 17,1 C 15,6 C 15,0 C 80 % 1013,8 hPa 0,0 l/m 0 min 0 min 0 W/m 0,0 km/h (0 Bft) 95,83 %
10.06.2020 21:58 17,0 C 15,6 C 15,0 C 80 % 1013,8 hPa 0,0 l/m 0 min 0 min 0 W/m 0,0 km/h (0 Bft) 97,96 %
10.06.2020 22:00 17,0 C 15,6 C 15,0 C 80 % 1013,7 hPa 0,0 l/m 0 min 0 min 0 W/m 0,0 km/h (0 Bft) 97,87 %
10.06.2020 22:02 16,9 C 15,6 C 15,0 C 80 % 1013,8 hPa 0,0 l/m 0 min 0 min 0 W/m 0,0 km/h (0 Bft) 97,87 %
10.06.2020 22:04 16,9 C 15,6 C 15,0 C 80 % 1013,8 hPa 0,0 l/m 0 min 0 min 0 W/m 0,0 km/h (0 Bft) 98,00 %
10.06.2020 22:06 16,9 C 15,6 C 15,0 C 80 % 1013,8 hPa 0,0 l/m 0 min 0 min 0 W/m 0,0 km/h (0 Bft) 97,83 %
10.06.2020 22:08 16,9 C 15,6 C 15,0 C 80 % 1013,9 hPa 0,0 l/m 0 min 0 min 0 W/m 0,0 km/h (0 Bft) 98,00 %
10.06.2020 22:10 16,9 C 15,6 C 15,0 C 80 % 1013,8 hPa 0,0 l/m 0 min 0 min 0 W/m 0,0 km/h (0 Bft) 97,87 %
10.06.2020 22:12 16,9 C 15,6 C 15,0 C 80 % 1013,8 hPa 0,0 l/m 0 min 0 min 0 W/m 0,0 km/h (0 Bft) 95,74 %
10.06.2020 22:14 16,8 C 15,0 C 15,0 C 80 % 1013,8 hPa 0,0 l/m 0 min 0 min 0 W/m 0,0 km/h (0 Bft) 97,56 %
10.06.2020 22:16 16,8 C 15,0 C 14,4 C 80 % 1013,9 hPa 0,0 l/m 0 min 0 min 0 W/m 0,0 km/h (0 Bft) 97,73 %
10.06.2020 22:18 16,8 C 15,0 C 14,4 C 80 % 1013,9 hPa 0,0 l/m 0 min 0 min 0 W/m 0,0 km/h (0 Bft) 95,92 %
10.06.2020 22:20 16,8 C 15,0 C 14,4 C 80 % 1013,9 hPa 0,0 l/m 0 min 0 min 0 W/m 0,0 km/h (0 Bft) 97,87 %
10.06.2020 22:22 16,8 C 15,0 C 14,4 C 80 % 1013,9 hPa 0,0 l/m 0 min 0 min 0 W/m 0,0 km/h (0 Bft) 98,00 %
10.06.2020 22:24 16,7 C 15,0 C 14,4 C 80 % 1013,9 hPa 0,0 l/m 0 min 0 min 0 W/m 0,0 km/h (0 Bft) 97,87 %
10.06.2020 22:26 16,7 C 15,0 C 14,4 C 80 % 1013,9 hPa 0,0 l/m 0 min 0 min 0 W/m 0,0 km/h (0 Bft) 97,87 %
10.06.2020 22:28 16,7 C 15,0 C 14,4 C 81 % 1013,9 hPa 0,0 l/m 0 min 0 min 0 W/m 0,0 km/h (0 Bft) 95,74 %
10.06.2020 22:30 16,7 C 15,0 C 14,4 C 81 % 1013,9 hPa 0,0 l/m 0 min 0 min 0 W/m 0,0 km/h (0 Bft) 97,87 %
10.06.2020 22:32 16,7 C 15,0 C 14,4 C 81 % 1013,9 hPa 0,0 l/m 0 min 0 min 0 W/m 0,0 km/h (0 Bft) 94,29 %
10.06.2020 22:34 16,6 C 15,0 C 14,4 C 81 % 1013,9 hPa 0,0 l/m 0 min 0 min 0 W/m 0,0 km/h (0 Bft) 97,92 %
10.06.2020 22:36 16,6 C 15,0 C 14,4 C 81 % 1013,9 hPa 0,0 l/m 0 min 0 min 0 W/m 0,0 km/h (0 Bft) 96,30 %
10.06.2020 22:38 16,6 C 15,0 C 14,4 C 81 % 1013,9 hPa 0,0 l/m 0 min 0 min 0 W/m 0,0 km/h (0 Bft) 97,56 %
10.06.2020 22:40 16,6 C 15,0 C 14,4 C 81 % 1013,9 hPa 0,0 l/m 0 min 0 min 0 W/m 0,0 km/h (0 Bft) 97,92 %
10.06.2020 22:42 16,6 C 15,0 C 14,4 C 81 % 1013,9 hPa 0,0 l/m 0 min 0 min 0 W/m 0,0 km/h (0 Bft) 98,15 %
10.06.2020 22:44 16,6 C 15,0 C 14,4 C 81 % 1013,9 hPa 0,0 l/m 0 min 0 min 0 W/m 0,0 km/h (0 Bft) 100,00 %
10.06.2020 22:46 16,5 C 15,0 C 14,4 C 81 % 1013,9 hPa 0,0 l/m 0 min 0 min 0 W/m 0,0 km/h (0 Bft) 98,00 %
10.06.2020 22:48 16,5 C 15,0 C 14,4 C 81 % 1013,9 hPa 0,0 l/m 0 min 0 min 0 W/m 0,0 km/h (0 Bft) 100,00 %
10.06.2020 22:50 16,5 C 15,0 C 14,4 C 81 % 1013,9 hPa 0,0 l/m 0 min 0 min 0 W/m 0,0 km/h (0 Bft) 97,22 %
10.06.2020 22:52 16,4 C 15,0 C 14,4 C 82 % 1013,9 hPa 0,0 l/m 0 min 0 min 0 W/m 0,0 km/h (0 Bft) 97,87 %
10.06.2020 22:54 16,4 C 15,0 C 14,4 C 82 % 1013,9 hPa 0,0 l/m 0 min 0 min 0 W/m 0,0 km/h (0 Bft) 97,92 %
10.06.2020 22:56 16,4 C 15,0 C 14,4 C 82 % 1013,9 hPa 0,0 l/m 0 min 0 min 0 W/m 0,0 km/h (0 Bft) 95,74 %
10.06.2020 22:58 16,4 C 15,0 C 14,4 C 82 % 1013,9 hPa 0,0 l/m 0 min 0 min 0 W/m 0,0 km/h (0 Bft) 97,87 %
10.06.2020 23:00 16,4 C 14,4 C 14,4 C 82 % 1013,8 hPa 0,0 l/m 0 min 0 min 0 W/m 0,0 km/h (0 Bft) 98,00 %
10.06.2020 23:02 16,3 C 14,4 C 14,4 C 82 % 1013,9 hPa 0,0 l/m 0 min 0 min 0 W/m 0,0 km/h (0 Bft) 97,87 %
10.06.2020 23:04 16,3 C 14,4 C 14,4 C 82 % 1013,9 hPa 0,0 l/m 0 min 0 min 0 W/m 0,0 km/h (0 Bft) 98,00 %
10.06.2020 23:06 16,3 C 14,4 C 14,4 C 82 % 1013,9 hPa 0,0 l/m 0 min 0 min 0 W/m 0,0 km/h (0 Bft) 97,22 %
10.06.2020 23:08 16,3 C 14,4 C 14,4 C 82 % 1013,9 hPa 0,0 l/m 0 min 0 min 0 W/m 0,0 km/h (0 Bft) 98,15 %
10.06.2020 23:10 16,3 C 14,4 C 13,9 C 82 % 1013,9 hPa 0,0 l/m 0 min 0 min 0 W/m 0,0 km/h (0 Bft) 97,87 %
10.06.2020 23:12 16,2 C 14,4 C 13,9 C 83 % 1014,0 hPa 0,0 l/m 0 min 0 min 0 W/m 0,0 km/h (0 Bft) 98,00 %
10.06.2020 23:14 16,2 C 14,4 C 13,9 C 82 % 1013,9 hPa 0,0 l/m 0 min 0 min 0 W/m 0,0 km/h (0 Bft) 97,87 %
10.06.2020 23:16 16,2 C 14,4 C 13,9 C 82 % 1013,9 hPa 0,0 l/m 0 min 0 min 0 W/m 0,0 km/h (0 Bft) 97,83 %
10.06.2020 23:18 16,2 C 14,4 C 13,9 C 82 % 1013,9 hPa 0,0 l/m 0 min 0 min 0 W/m 0,0 km/h (0 Bft) 97,87 %
10.06.2020 23:20 16,2 C 14,4 C 13,9 C 82 % 1013,9 hPa 0,0 l/m 0 min 0 min 0 W/m 0,0 km/h (0 Bft) 95,74 %
10.06.2020 23:22 16,1 C 14,4 C 13,9 C 83 % 1013,9 hPa 0,0 l/m 0 min 0 min 0 W/m 0,0 km/h (0 Bft) 95,74 %
10.06.2020 23:24 16,1 C 14,4 C 13,9 C 83 % 1013,9 hPa 0,0 l/m 0 min 0 min 0 W/m 0,0 km/h (0 Bft) 97,87 %
10.06.2020 23:26 16,1 C 14,4 C 13,9 C 83 % 1013,9 hPa 0,0 l/m 0 min 0 min 0 W/m 0,0 km/h (0 Bft) 97,96 %
10.06.2020 23:28 16,1 C 14,4 C 13,9 C 83 % 1013,9 hPa 0,0 l/m 0 min 0 min 0 W/m 0,0 km/h (0 Bft) 97,87 %
10.06.2020 23:30 16,0 C 14,4 C 13,9 C 83 % 1013,9 hPa 0,0 l/m 0 min 0 min 0 W/m 0,0 km/h (0 Bft) 95,74 %
10.06.2020 23:32 16,0 C 14,4 C 13,9 C 83 % 1013,9 hPa 0,0 l/m 0 min 0 min 0 W/m 0,0 km/h (0 Bft) 97,22 %
10.06.2020 23:34 16,0 C 14,4 C 13,9 C 83 % 1013,9 hPa 0,0 l/m 0 min 0 min 0 W/m 0,0 km/h (0 Bft) 93,75 %
10.06.2020 23:36 15,9 C 14,4 C 13,9 C 83 % 1013,9 hPa 0,0 l/m 0 min 0 min 0 W/m 0,0 km/h (0 Bft) 97,92 %
10.06.2020 23:38 15,9 C 14,4 C 13,9 C 83 % 1013,8 hPa 0,0 l/m 0 min 0 min 0 W/m 0,0 km/h (0 Bft) 100,00 %
10.06.2020 23:40 15,9 C 14,4 C 13,9 C 83 % 1013,8 hPa 0,0 l/m 0 min 0 min 0 W/m 0,0 km/h (0 Bft) 97,83 %
10.06.2020 23:42 15,9 C 14,4 C 13,9 C 83 % 1013,7 hPa 0,0 l/m 0 min 0 min 0 W/m 0,0 km/h (0 Bft) 97,87 %
10.06.2020 23:44 15,9 C 14,4 C 13,9 C 83 % 1013,7 hPa 0,0 l/m 0 min 0 min 0 W/m 0,0 km/h (0 Bft) 95,92 %
10.06.2020 23:46 15,8 C 14,4 C 13,9 C 83 % 1013,7 hPa 0,0 l/m 0 min 0 min 0 W/m 0,0 km/h (0 Bft) 95,74 %
10.06.2020 23:48 15,8 C 14,4 C 13,9 C 83 % 1013,7 hPa 0,0 l/m 0 min 0 min 0 W/m 0,0 km/h (0 Bft) 96,30 %
10.06.2020 23:50 15,8 C 14,4 C 13,9 C 83 % 1013,7 hPa 0,0 l/m 0 min 0 min 0 W/m 0,0 km/h (0 Bft) 93,62 %
10.06.2020 23:52 15,8 C 14,4 C 13,9 C 83 % 1013,7 hPa 0,0 l/m 0 min 0 min 0 W/m 0,0 km/h (0 Bft) 97,83 %
10.06.2020 23:54 15,8 C 14,4 C 13,9 C 83 % 1013,8 hPa 0,0 l/m 0 min 0 min 0 W/m 0,0 km/h (0 Bft) 94,74 %
10.06.2020 23:56 15,7 C 14,4 C 13,9 C 83 % 1013,7 hPa 0,0 l/m 0 min 0 min 0 W/m 0,0 km/h (0 Bft) 97,96 %
10.06.2020 23:58 15,7 C 14,4 C 13,9 C 83 % 1013,7 hPa 0,0 l/m 0 min 0 min 0 W/m 0,0 km/h (0 Bft) 96,00 %
_ Min-Zeit 06:12 05:12 05:02 15:54 20:30 - - - - 00:00 00:02
Minimum _ 12,5 C 11,1 C 11,1 C 68 % 1013,5 hPa - - - - 0,0 km/h (0 Bft) 90,91 %
_ Max-Zeit 15:46 15:38 13:18 07:34 00:00 00:00 12:08 00:48 15:36 12:16 01:32
Maximum _ 20,9 C 25,0 C 19,4 C 91 % 1018,2 hPa 0,0 l/m 4 min 2 min 626 W/m 12,9 km/h
O (3 Bft)
100,00 %
Durchschnitt _ 16,5 C 16,4 C 15,2 C 81 % 1015,6 hPa #0,0 l/m #1:50 h #2 min. 194 W/m 1,6 km/h (1 Bft) 97,44 %
© 2020 W. Hausmann